<?xml version="1.0" encoding="UTF-8" standalone="no" ?>
<gpx xmlns="http://www.topografix.com/GPX/1/1" xmlns:xsi="http://www.w3.org/2001/XMLSchema-instance" xsi:schemaLocation="http://www.topografix.com/GPX/1/1 http://www.topografix.com/GPX/1/1/gpx.xsd" version="1.1" creator="VisuGPX - https://www.visugpx.com">
  <metadata>
    <name>2021-08-14 Thannenkirch et les 3 châteaux</name>
  </metadata>
  <trk>
    <name><![CDATA[2021-08-14 Thannenkirch et les 3 châteaux]]></name>
    <extensions>
      <line xmlns="http://www.topografix.com/GPX/gpx_style/0/2">
        <color>0000FF</color>
        <opacity>0.59</opacity>
        <width>6.0</width>
      </line>
    </extensions>
    <trkseg>
      <trkpt lat="48.22617" lon="7.30464">
        <ele>460.3</ele>
        <time>2021-08-14T09:00:13.000Z</time>
      </trkpt>
      <trkpt lat="48.22608" lon="7.30458">
        <ele>460.8</ele>
        <time>2021-08-14T09:00:30.000Z</time>
      </trkpt>
      <trkpt lat="48.22598" lon="7.30458">
        <ele>460.7</ele>
        <time>2021-08-14T09:00:39.000Z</time>
      </trkpt>
      <trkpt lat="48.22588" lon="7.30456">
        <ele>460.8</ele>
        <time>2021-08-14T09:00:46.000Z</time>
      </trkpt>
      <trkpt lat="48.22579" lon="7.30452">
        <ele>461.3</ele>
        <time>2021-08-14T09:00:54.000Z</time>
      </trkpt>
      <trkpt lat="48.2257" lon="7.30446">
        <ele>462.1</ele>
        <time>2021-08-14T09:01:01.000Z</time>
      </trkpt>
      <trkpt lat="48.22563" lon="7.30436">
        <ele>463.3</ele>
        <time>2021-08-14T09:01:09.000Z</time>
      </trkpt>
      <trkpt lat="48.22556" lon="7.30427">
        <ele>464.5</ele>
        <time>2021-08-14T09:01:20.000Z</time>
      </trkpt>
      <trkpt lat="48.2255" lon="7.30415">
        <ele>466.1</ele>
        <time>2021-08-14T09:01:31.000Z</time>
      </trkpt>
      <trkpt lat="48.22544" lon="7.30402">
        <ele>468.4</ele>
        <time>2021-08-14T09:01:39.000Z</time>
      </trkpt>
      <trkpt lat="48.2254" lon="7.30388">
        <ele>470.9</ele>
        <time>2021-08-14T09:01:45.000Z</time>
      </trkpt>
      <trkpt lat="48.22534" lon="7.30376">
        <ele>473.1</ele>
        <time>2021-08-14T09:01:52.000Z</time>
      </trkpt>
      <trkpt lat="48.22526" lon="7.30367">
        <ele>475</ele>
        <time>2021-08-14T09:02:00.000Z</time>
      </trkpt>
      <trkpt lat="48.22519" lon="7.30358">
        <ele>476.9</ele>
        <time>2021-08-14T09:02:06.000Z</time>
      </trkpt>
      <trkpt lat="48.2251" lon="7.30358">
        <ele>477.2</ele>
        <time>2021-08-14T09:02:14.000Z</time>
      </trkpt>
      <trkpt lat="48.22502" lon="7.30365">
        <ele>476.2</ele>
        <time>2021-08-14T09:02:21.000Z</time>
      </trkpt>
      <trkpt lat="48.22495" lon="7.30374">
        <ele>476.6</ele>
        <time>2021-08-14T09:02:29.000Z</time>
      </trkpt>
      <trkpt lat="48.22492" lon="7.30388">
        <ele>475.1</ele>
        <time>2021-08-14T09:02:40.000Z</time>
      </trkpt>
      <trkpt lat="48.22487" lon="7.304">
        <ele>474.2</ele>
        <time>2021-08-14T09:02:48.000Z</time>
      </trkpt>
      <trkpt lat="48.22483" lon="7.30412">
        <ele>473.4</ele>
        <time>2021-08-14T09:02:54.000Z</time>
      </trkpt>
      <trkpt lat="48.22478" lon="7.30424">
        <ele>472.9</ele>
        <time>2021-08-14T09:02:59.000Z</time>
      </trkpt>
      <trkpt lat="48.22475" lon="7.30437">
        <ele>471.9</ele>
        <time>2021-08-14T09:03:07.000Z</time>
      </trkpt>
      <trkpt lat="48.22469" lon="7.30447">
        <ele>471.9</ele>
        <time>2021-08-14T09:03:16.000Z</time>
      </trkpt>
      <trkpt lat="48.22461" lon="7.30455">
        <ele>472.8</ele>
        <time>2021-08-14T09:03:22.000Z</time>
      </trkpt>
      <trkpt lat="48.22452" lon="7.30461">
        <ele>474</ele>
        <time>2021-08-14T09:03:30.000Z</time>
      </trkpt>
      <trkpt lat="48.22443" lon="7.30465">
        <ele>475.6</ele>
        <time>2021-08-14T09:03:38.000Z</time>
      </trkpt>
      <trkpt lat="48.22434" lon="7.30468">
        <ele>477.2</ele>
        <time>2021-08-14T09:03:45.000Z</time>
      </trkpt>
      <trkpt lat="48.22425" lon="7.30461">
        <ele>481</ele>
        <time>2021-08-14T09:03:53.000Z</time>
      </trkpt>
      <trkpt lat="48.2242" lon="7.30449">
        <ele>485.4</ele>
        <time>2021-08-14T09:04:00.000Z</time>
      </trkpt>
      <trkpt lat="48.22411" lon="7.30448">
        <ele>487.2</ele>
        <time>2021-08-14T09:04:08.000Z</time>
      </trkpt>
      <trkpt lat="48.22402" lon="7.30441">
        <ele>489.7</ele>
        <time>2021-08-14T09:04:21.000Z</time>
      </trkpt>
      <trkpt lat="48.22396" lon="7.30431">
        <ele>492.7</ele>
        <time>2021-08-14T09:04:31.000Z</time>
      </trkpt>
      <trkpt lat="48.22386" lon="7.30427">
        <ele>494.6</ele>
        <time>2021-08-14T09:04:40.000Z</time>
      </trkpt>
      <trkpt lat="48.22378" lon="7.3042">
        <ele>496.9</ele>
        <time>2021-08-14T09:04:47.000Z</time>
      </trkpt>
      <trkpt lat="48.2237" lon="7.30416">
        <ele>498.7</ele>
        <time>2021-08-14T09:04:53.000Z</time>
      </trkpt>
      <trkpt lat="48.22361" lon="7.30411">
        <ele>500.8</ele>
        <time>2021-08-14T09:05:01.000Z</time>
      </trkpt>
      <trkpt lat="48.2235" lon="7.30411">
        <ele>501.9</ele>
        <time>2021-08-14T09:05:08.000Z</time>
      </trkpt>
      <trkpt lat="48.2234" lon="7.30411">
        <ele>502.9</ele>
        <time>2021-08-14T09:05:16.000Z</time>
      </trkpt>
      <trkpt lat="48.2233" lon="7.30412">
        <ele>503.8</ele>
        <time>2021-08-14T09:05:26.000Z</time>
      </trkpt>
      <trkpt lat="48.22323" lon="7.30423">
        <ele>502.5</ele>
        <time>2021-08-14T09:05:37.000Z</time>
      </trkpt>
      <trkpt lat="48.22324" lon="7.30438">
        <ele>499.7</ele>
        <time>2021-08-14T09:05:43.000Z</time>
      </trkpt>
      <trkpt lat="48.22325" lon="7.30452">
        <ele>497</ele>
        <time>2021-08-14T09:05:53.000Z</time>
      </trkpt>
      <trkpt lat="48.22325" lon="7.30466">
        <ele>494.6</ele>
        <time>2021-08-14T09:06:13.000Z</time>
      </trkpt>
      <trkpt lat="48.2232" lon="7.30478">
        <ele>493.9</ele>
        <time>2021-08-14T09:06:26.000Z</time>
      </trkpt>
      <trkpt lat="48.22313" lon="7.30489">
        <ele>494.1</ele>
        <time>2021-08-14T09:06:35.000Z</time>
      </trkpt>
      <trkpt lat="48.22308" lon="7.30499">
        <ele>494.2</ele>
        <time>2021-08-14T09:06:45.000Z</time>
      </trkpt>
      <trkpt lat="48.22304" lon="7.30513">
        <ele>494.5</ele>
        <time>2021-08-14T09:06:56.000Z</time>
      </trkpt>
      <trkpt lat="48.22295" lon="7.30519">
        <ele>496.9</ele>
        <time>2021-08-14T09:07:05.000Z</time>
      </trkpt>
      <trkpt lat="48.22288" lon="7.3053">
        <ele>498.7</ele>
        <time>2021-08-14T09:07:17.000Z</time>
      </trkpt>
      <trkpt lat="48.22282" lon="7.3054">
        <ele>500.4</ele>
        <time>2021-08-14T09:07:23.000Z</time>
      </trkpt>
      <trkpt lat="48.22278" lon="7.30555">
        <ele>500.8</ele>
        <time>2021-08-14T09:07:33.000Z</time>
      </trkpt>
      <trkpt lat="48.22279" lon="7.3057">
        <ele>499.9</ele>
        <time>2021-08-14T09:07:41.000Z</time>
      </trkpt>
      <trkpt lat="48.22284" lon="7.30583">
        <ele>497.7</ele>
        <time>2021-08-14T09:07:49.000Z</time>
      </trkpt>
      <trkpt lat="48.22283" lon="7.30598">
        <ele>498.2</ele>
        <time>2021-08-14T09:07:57.000Z</time>
      </trkpt>
      <trkpt lat="48.22288" lon="7.3061">
        <ele>497.3</ele>
        <time>2021-08-14T09:08:04.000Z</time>
      </trkpt>
      <trkpt lat="48.22289" lon="7.30625">
        <ele>497.3</ele>
        <time>2021-08-14T09:08:12.000Z</time>
      </trkpt>
      <trkpt lat="48.22286" lon="7.30638">
        <ele>498.7</ele>
        <time>2021-08-14T09:08:20.000Z</time>
      </trkpt>
      <trkpt lat="48.22279" lon="7.30649">
        <ele>501</ele>
        <time>2021-08-14T09:08:28.000Z</time>
      </trkpt>
      <trkpt lat="48.22274" lon="7.30661">
        <ele>502.6</ele>
        <time>2021-08-14T09:08:38.000Z</time>
      </trkpt>
      <trkpt lat="48.22268" lon="7.30672">
        <ele>504</ele>
        <time>2021-08-14T09:08:45.000Z</time>
      </trkpt>
      <trkpt lat="48.2226" lon="7.30681">
        <ele>505.2</ele>
        <time>2021-08-14T09:08:54.000Z</time>
      </trkpt>
      <trkpt lat="48.2226" lon="7.30695">
        <ele>504.3</ele>
        <time>2021-08-14T09:09:03.000Z</time>
      </trkpt>
      <trkpt lat="48.22253" lon="7.30706">
        <ele>504.9</ele>
        <time>2021-08-14T09:09:11.000Z</time>
      </trkpt>
      <trkpt lat="48.22245" lon="7.30716">
        <ele>505.4</ele>
        <time>2021-08-14T09:09:22.000Z</time>
      </trkpt>
      <trkpt lat="48.22237" lon="7.30723">
        <ele>505.6</ele>
        <time>2021-08-14T09:09:29.000Z</time>
      </trkpt>
      <trkpt lat="48.22228" lon="7.30725">
        <ele>506.3</ele>
        <time>2021-08-14T09:09:38.000Z</time>
      </trkpt>
      <trkpt lat="48.22218" lon="7.30729">
        <ele>506.8</ele>
        <time>2021-08-14T09:09:44.000Z</time>
      </trkpt>
      <trkpt lat="48.2221" lon="7.30735">
        <ele>506.9</ele>
        <time>2021-08-14T09:09:54.000Z</time>
      </trkpt>
      <trkpt lat="48.222" lon="7.30737">
        <ele>507.5</ele>
        <time>2021-08-14T09:10:02.000Z</time>
      </trkpt>
      <trkpt lat="48.22191" lon="7.3074">
        <ele>507.7</ele>
        <time>2021-08-14T09:10:09.000Z</time>
      </trkpt>
      <trkpt lat="48.22183" lon="7.30745">
        <ele>507.6</ele>
        <time>2021-08-14T09:10:19.000Z</time>
      </trkpt>
      <trkpt lat="48.22174" lon="7.30749">
        <ele>507.7</ele>
        <time>2021-08-14T09:10:29.000Z</time>
      </trkpt>
      <trkpt lat="48.22164" lon="7.30748">
        <ele>508.3</ele>
        <time>2021-08-14T09:10:39.000Z</time>
      </trkpt>
      <trkpt lat="48.22155" lon="7.30752">
        <ele>507.4</ele>
        <time>2021-08-14T09:10:47.000Z</time>
      </trkpt>
      <trkpt lat="48.22146" lon="7.30753">
        <ele>506.9</ele>
        <time>2021-08-14T09:10:55.000Z</time>
      </trkpt>
      <trkpt lat="48.22137" lon="7.30745">
        <ele>508</ele>
        <time>2021-08-14T09:11:05.000Z</time>
      </trkpt>
      <trkpt lat="48.2213" lon="7.30737">
        <ele>509.5</ele>
        <time>2021-08-14T09:11:13.000Z</time>
      </trkpt>
      <trkpt lat="48.22122" lon="7.30727">
        <ele>511.5</ele>
        <time>2021-08-14T09:11:21.000Z</time>
      </trkpt>
      <trkpt lat="48.22116" lon="7.30717">
        <ele>513.8</ele>
        <time>2021-08-14T09:11:31.000Z</time>
      </trkpt>
      <trkpt lat="48.22108" lon="7.30711">
        <ele>515.3</ele>
        <time>2021-08-14T09:11:39.000Z</time>
      </trkpt>
      <trkpt lat="48.22099" lon="7.30705">
        <ele>516.7</ele>
        <time>2021-08-14T09:11:47.000Z</time>
      </trkpt>
      <trkpt lat="48.2209" lon="7.30701">
        <ele>517.9</ele>
        <time>2021-08-14T09:11:54.000Z</time>
      </trkpt>
      <trkpt lat="48.22081" lon="7.30696">
        <ele>519.3</ele>
        <time>2021-08-14T09:12:01.000Z</time>
      </trkpt>
      <trkpt lat="48.22073" lon="7.30692">
        <ele>520.6</ele>
        <time>2021-08-14T09:12:07.000Z</time>
      </trkpt>
      <trkpt lat="48.22064" lon="7.30688">
        <ele>522</ele>
        <time>2021-08-14T09:12:13.000Z</time>
      </trkpt>
      <trkpt lat="48.22055" lon="7.30681">
        <ele>523.5</ele>
        <time>2021-08-14T09:12:22.000Z</time>
      </trkpt>
      <trkpt lat="48.22047" lon="7.30676">
        <ele>524.5</ele>
        <time>2021-08-14T09:12:31.000Z</time>
      </trkpt>
      <trkpt lat="48.22037" lon="7.30672">
        <ele>525.1</ele>
        <time>2021-08-14T09:12:37.000Z</time>
      </trkpt>
      <trkpt lat="48.22029" lon="7.30665">
        <ele>526.3</ele>
        <time>2021-08-14T09:12:43.000Z</time>
      </trkpt>
      <trkpt lat="48.22018" lon="7.30659">
        <ele>527.8</ele>
        <time>2021-08-14T09:12:48.000Z</time>
      </trkpt>
      <trkpt lat="48.22009" lon="7.30663">
        <ele>526.2</ele>
        <time>2021-08-14T09:13:02.000Z</time>
      </trkpt>
      <trkpt lat="48.22006" lon="7.30676">
        <ele>524.4</ele>
        <time>2021-08-14T09:13:08.000Z</time>
      </trkpt>
      <trkpt lat="48.22008" lon="7.30689">
        <ele>523.4</ele>
        <time>2021-08-14T09:13:15.000Z</time>
      </trkpt>
      <trkpt lat="48.22005" lon="7.30703">
        <ele>522.5</ele>
        <time>2021-08-14T09:13:23.000Z</time>
      </trkpt>
      <trkpt lat="48.22007" lon="7.30717">
        <ele>521.3</ele>
        <time>2021-08-14T09:13:29.000Z</time>
      </trkpt>
      <trkpt lat="48.22011" lon="7.30731">
        <ele>519.7</ele>
        <time>2021-08-14T09:13:35.000Z</time>
      </trkpt>
      <trkpt lat="48.22018" lon="7.30741">
        <ele>517.7</ele>
        <time>2021-08-14T09:13:41.000Z</time>
      </trkpt>
      <trkpt lat="48.22022" lon="7.30753">
        <ele>515.9</ele>
        <time>2021-08-14T09:13:47.000Z</time>
      </trkpt>
      <trkpt lat="48.22022" lon="7.30767">
        <ele>515.3</ele>
        <time>2021-08-14T09:13:56.000Z</time>
      </trkpt>
      <trkpt lat="48.22021" lon="7.30781">
        <ele>514.8</ele>
        <time>2021-08-14T09:14:04.000Z</time>
      </trkpt>
      <trkpt lat="48.22019" lon="7.30794">
        <ele>514.7</ele>
        <time>2021-08-14T09:14:12.000Z</time>
      </trkpt>
      <trkpt lat="48.22017" lon="7.30809">
        <ele>514.4</ele>
        <time>2021-08-14T09:14:20.000Z</time>
      </trkpt>
      <trkpt lat="48.22014" lon="7.30822">
        <ele>514.5</ele>
        <time>2021-08-14T09:14:27.000Z</time>
      </trkpt>
      <trkpt lat="48.22012" lon="7.30838">
        <ele>514.1</ele>
        <time>2021-08-14T09:14:44.000Z</time>
      </trkpt>
      <trkpt lat="48.22006" lon="7.30848">
        <ele>514.5</ele>
        <time>2021-08-14T09:14:53.000Z</time>
      </trkpt>
      <trkpt lat="48.22001" lon="7.30862">
        <ele>513.9</ele>
        <time>2021-08-14T09:15:01.000Z</time>
      </trkpt>
      <trkpt lat="48.21999" lon="7.30875">
        <ele>512.8</ele>
        <time>2021-08-14T09:15:08.000Z</time>
      </trkpt>
      <trkpt lat="48.21995" lon="7.30888">
        <ele>511.8</ele>
        <time>2021-08-14T09:15:14.000Z</time>
      </trkpt>
      <trkpt lat="48.21991" lon="7.30903">
        <ele>510.3</ele>
        <time>2021-08-14T09:15:20.000Z</time>
      </trkpt>
      <trkpt lat="48.21984" lon="7.30914">
        <ele>509.9</ele>
        <time>2021-08-14T09:15:29.000Z</time>
      </trkpt>
      <trkpt lat="48.21978" lon="7.30924">
        <ele>509.8</ele>
        <time>2021-08-14T09:15:36.000Z</time>
      </trkpt>
      <trkpt lat="48.21972" lon="7.30935">
        <ele>509.7</ele>
        <time>2021-08-14T09:15:45.000Z</time>
      </trkpt>
      <trkpt lat="48.21963" lon="7.30941">
        <ele>510.4</ele>
        <time>2021-08-14T09:15:54.000Z</time>
      </trkpt>
      <trkpt lat="48.21954" lon="7.30948">
        <ele>510.7</ele>
        <time>2021-08-14T09:16:02.000Z</time>
      </trkpt>
      <trkpt lat="48.21945" lon="7.30953">
        <ele>511.1</ele>
        <time>2021-08-14T09:16:08.000Z</time>
      </trkpt>
      <trkpt lat="48.21936" lon="7.30957">
        <ele>511.5</ele>
        <time>2021-08-14T09:16:14.000Z</time>
      </trkpt>
      <trkpt lat="48.21928" lon="7.30963">
        <ele>511.7</ele>
        <time>2021-08-14T09:16:24.000Z</time>
      </trkpt>
      <trkpt lat="48.21918" lon="7.30965">
        <ele>512.4</ele>
        <time>2021-08-14T09:16:36.000Z</time>
      </trkpt>
      <trkpt lat="48.21909" lon="7.30968">
        <ele>510.9</ele>
        <time>2021-08-14T09:16:43.000Z</time>
      </trkpt>
      <trkpt lat="48.219" lon="7.30975">
        <ele>508.6</ele>
        <time>2021-08-14T09:16:52.000Z</time>
      </trkpt>
      <trkpt lat="48.21891" lon="7.30971">
        <ele>508.1</ele>
        <time>2021-08-14T09:16:59.000Z</time>
      </trkpt>
      <trkpt lat="48.21882" lon="7.30964">
        <ele>508.3</ele>
        <time>2021-08-14T09:17:08.000Z</time>
      </trkpt>
      <trkpt lat="48.21876" lon="7.30954">
        <ele>509.4</ele>
        <time>2021-08-14T09:17:15.000Z</time>
      </trkpt>
      <trkpt lat="48.21868" lon="7.30947">
        <ele>510</ele>
        <time>2021-08-14T09:17:20.000Z</time>
      </trkpt>
      <trkpt lat="48.2186" lon="7.30939">
        <ele>511.1</ele>
        <time>2021-08-14T09:17:26.000Z</time>
      </trkpt>
      <trkpt lat="48.21851" lon="7.30933">
        <ele>511.4</ele>
        <time>2021-08-14T09:17:38.000Z</time>
      </trkpt>
      <trkpt lat="48.21843" lon="7.30925">
        <ele>512.6</ele>
        <time>2021-08-14T09:17:48.000Z</time>
      </trkpt>
      <trkpt lat="48.21835" lon="7.30915">
        <ele>514.6</ele>
        <time>2021-08-14T09:17:55.000Z</time>
      </trkpt>
      <trkpt lat="48.21828" lon="7.30905">
        <ele>516.6</ele>
        <time>2021-08-14T09:18:05.000Z</time>
      </trkpt>
      <trkpt lat="48.21822" lon="7.30894">
        <ele>518.9</ele>
        <time>2021-08-14T09:18:13.000Z</time>
      </trkpt>
      <trkpt lat="48.21814" lon="7.30884">
        <ele>521.2</ele>
        <time>2021-08-14T09:18:23.000Z</time>
      </trkpt>
      <trkpt lat="48.21806" lon="7.30878">
        <ele>522.5</ele>
        <time>2021-08-14T09:18:28.000Z</time>
      </trkpt>
      <trkpt lat="48.21796" lon="7.30876">
        <ele>522.7</ele>
        <time>2021-08-14T09:18:35.000Z</time>
      </trkpt>
      <trkpt lat="48.21786" lon="7.30877">
        <ele>521.9</ele>
        <time>2021-08-14T09:18:42.000Z</time>
      </trkpt>
      <trkpt lat="48.21777" lon="7.3088">
        <ele>520.6</ele>
        <time>2021-08-14T09:18:48.000Z</time>
      </trkpt>
      <trkpt lat="48.21768" lon="7.30883">
        <ele>519.1</ele>
        <time>2021-08-14T09:18:54.000Z</time>
      </trkpt>
      <trkpt lat="48.21758" lon="7.30888">
        <ele>516.8</ele>
        <time>2021-08-14T09:19:00.000Z</time>
      </trkpt>
      <trkpt lat="48.21747" lon="7.30889">
        <ele>515.6</ele>
        <time>2021-08-14T09:19:09.000Z</time>
      </trkpt>
      <trkpt lat="48.21737" lon="7.30891">
        <ele>513.2</ele>
        <time>2021-08-14T09:19:17.000Z</time>
      </trkpt>
      <trkpt lat="48.21728" lon="7.3089">
        <ele>512.1</ele>
        <time>2021-08-14T09:19:24.000Z</time>
      </trkpt>
      <trkpt lat="48.21719" lon="7.30887">
        <ele>511.8</ele>
        <time>2021-08-14T09:19:34.000Z</time>
      </trkpt>
      <trkpt lat="48.21712" lon="7.30879">
        <ele>513.4</ele>
        <time>2021-08-14T09:19:42.000Z</time>
      </trkpt>
      <trkpt lat="48.21704" lon="7.30871">
        <ele>514.6</ele>
        <time>2021-08-14T09:19:51.000Z</time>
      </trkpt>
      <trkpt lat="48.21696" lon="7.30864">
        <ele>515.4</ele>
        <time>2021-08-14T09:19:59.000Z</time>
      </trkpt>
      <trkpt lat="48.21689" lon="7.30852">
        <ele>517.8</ele>
        <time>2021-08-14T09:20:06.000Z</time>
      </trkpt>
      <trkpt lat="48.21683" lon="7.30842">
        <ele>519.6</ele>
        <time>2021-08-14T09:20:14.000Z</time>
      </trkpt>
      <trkpt lat="48.21676" lon="7.30832">
        <ele>521.2</ele>
        <time>2021-08-14T09:20:22.000Z</time>
      </trkpt>
      <trkpt lat="48.21671" lon="7.3082">
        <ele>523</ele>
        <time>2021-08-14T09:20:31.000Z</time>
      </trkpt>
      <trkpt lat="48.21666" lon="7.30809">
        <ele>524.4</ele>
        <time>2021-08-14T09:20:42.000Z</time>
      </trkpt>
      <trkpt lat="48.21661" lon="7.30796">
        <ele>525.5</ele>
        <time>2021-08-14T09:20:50.000Z</time>
      </trkpt>
      <trkpt lat="48.21658" lon="7.30784">
        <ele>527</ele>
        <time>2021-08-14T09:20:57.000Z</time>
      </trkpt>
      <trkpt lat="48.21654" lon="7.3077">
        <ele>528.9</ele>
        <time>2021-08-14T09:21:04.000Z</time>
      </trkpt>
      <trkpt lat="48.21648" lon="7.30758">
        <ele>529.9</ele>
        <time>2021-08-14T09:21:12.000Z</time>
      </trkpt>
      <trkpt lat="48.21643" lon="7.30745">
        <ele>531.8</ele>
        <time>2021-08-14T09:21:18.000Z</time>
      </trkpt>
      <trkpt lat="48.2164" lon="7.30731">
        <ele>535.2</ele>
        <time>2021-08-14T09:21:27.000Z</time>
      </trkpt>
      <trkpt lat="48.21637" lon="7.30717">
        <ele>539.2</ele>
        <time>2021-08-14T09:21:36.000Z</time>
      </trkpt>
      <trkpt lat="48.21632" lon="7.30704">
        <ele>542.1</ele>
        <time>2021-08-14T09:21:45.000Z</time>
      </trkpt>
      <trkpt lat="48.21626" lon="7.30694">
        <ele>543.9</ele>
        <time>2021-08-14T09:21:54.000Z</time>
      </trkpt>
      <trkpt lat="48.21617" lon="7.30686">
        <ele>543.9</ele>
        <time>2021-08-14T09:22:01.000Z</time>
      </trkpt>
      <trkpt lat="48.21607" lon="7.30684">
        <ele>541.7</ele>
        <time>2021-08-14T09:22:06.000Z</time>
      </trkpt>
      <trkpt lat="48.21598" lon="7.30688">
        <ele>537.8</ele>
        <time>2021-08-14T09:22:12.000Z</time>
      </trkpt>
      <trkpt lat="48.21589" lon="7.30695">
        <ele>532.6</ele>
        <time>2021-08-14T09:22:20.000Z</time>
      </trkpt>
      <trkpt lat="48.2158" lon="7.30699">
        <ele>528.9</ele>
        <time>2021-08-14T09:22:26.000Z</time>
      </trkpt>
      <trkpt lat="48.2157" lon="7.30702">
        <ele>525.8</ele>
        <time>2021-08-14T09:22:32.000Z</time>
      </trkpt>
      <trkpt lat="48.21559" lon="7.30706">
        <ele>522.4</ele>
        <time>2021-08-14T09:22:38.000Z</time>
      </trkpt>
      <trkpt lat="48.2155" lon="7.30702">
        <ele>522</ele>
        <time>2021-08-14T09:22:46.000Z</time>
      </trkpt>
      <trkpt lat="48.21543" lon="7.30692">
        <ele>524.4</ele>
        <time>2021-08-14T09:22:54.000Z</time>
      </trkpt>
      <trkpt lat="48.21535" lon="7.30682">
        <ele>526.6</ele>
        <time>2021-08-14T09:23:06.000Z</time>
      </trkpt>
      <trkpt lat="48.21526" lon="7.30674">
        <ele>527.8</ele>
        <time>2021-08-14T09:23:13.000Z</time>
      </trkpt>
      <trkpt lat="48.2152" lon="7.30664">
        <ele>529.7</ele>
        <time>2021-08-14T09:23:20.000Z</time>
      </trkpt>
      <trkpt lat="48.21513" lon="7.30654">
        <ele>531.7</ele>
        <time>2021-08-14T09:23:29.000Z</time>
      </trkpt>
      <trkpt lat="48.21505" lon="7.30646">
        <ele>532.5</ele>
        <time>2021-08-14T09:23:37.000Z</time>
      </trkpt>
      <trkpt lat="48.21506" lon="7.30662">
        <ele>527.8</ele>
        <time>2021-08-14T09:23:49.000Z</time>
      </trkpt>
      <trkpt lat="48.21496" lon="7.30656">
        <ele>527.4</ele>
        <time>2021-08-14T09:24:06.000Z</time>
      </trkpt>
      <trkpt lat="48.21488" lon="7.30644">
        <ele>529</ele>
        <time>2021-08-14T09:24:11.000Z</time>
      </trkpt>
      <trkpt lat="48.21481" lon="7.30624">
        <ele>533.2</ele>
        <time>2021-08-14T09:24:16.000Z</time>
      </trkpt>
      <trkpt lat="48.21473" lon="7.306">
        <ele>537.4</ele>
        <time>2021-08-14T09:24:21.000Z</time>
      </trkpt>
      <trkpt lat="48.21469" lon="7.30579">
        <ele>541.9</ele>
        <time>2021-08-14T09:24:26.000Z</time>
      </trkpt>
      <trkpt lat="48.21463" lon="7.30568">
        <ele>542.6</ele>
        <time>2021-08-14T09:24:31.000Z</time>
      </trkpt>
      <trkpt lat="48.21456" lon="7.30559">
        <ele>542.5</ele>
        <time>2021-08-14T09:24:36.000Z</time>
      </trkpt>
      <trkpt lat="48.21447" lon="7.3055">
        <ele>541.3</ele>
        <time>2021-08-14T09:24:42.000Z</time>
      </trkpt>
      <trkpt lat="48.21441" lon="7.3054">
        <ele>541.3</ele>
        <time>2021-08-14T09:24:51.000Z</time>
      </trkpt>
      <trkpt lat="48.21435" lon="7.30528">
        <ele>541.6</ele>
        <time>2021-08-14T09:24:59.000Z</time>
      </trkpt>
      <trkpt lat="48.21431" lon="7.30516">
        <ele>542.7</ele>
        <time>2021-08-14T09:25:08.000Z</time>
      </trkpt>
      <trkpt lat="48.21428" lon="7.30502">
        <ele>544.3</ele>
        <time>2021-08-14T09:25:16.000Z</time>
      </trkpt>
      <trkpt lat="48.21427" lon="7.30488">
        <ele>546</ele>
        <time>2021-08-14T09:25:24.000Z</time>
      </trkpt>
      <trkpt lat="48.21426" lon="7.30474">
        <ele>547.7</ele>
        <time>2021-08-14T09:25:33.000Z</time>
      </trkpt>
      <trkpt lat="48.21424" lon="7.3046">
        <ele>548.8</ele>
        <time>2021-08-14T09:25:41.000Z</time>
      </trkpt>
      <trkpt lat="48.21422" lon="7.30447">
        <ele>549.9</ele>
        <time>2021-08-14T09:25:48.000Z</time>
      </trkpt>
      <trkpt lat="48.21423" lon="7.30433">
        <ele>552</ele>
        <time>2021-08-14T09:25:55.000Z</time>
      </trkpt>
      <trkpt lat="48.21422" lon="7.3042">
        <ele>553.9</ele>
        <time>2021-08-14T09:26:01.000Z</time>
      </trkpt>
      <trkpt lat="48.21425" lon="7.30405">
        <ele>556.3</ele>
        <time>2021-08-14T09:26:10.000Z</time>
      </trkpt>
      <trkpt lat="48.21423" lon="7.30392">
        <ele>556.7</ele>
        <time>2021-08-14T09:26:17.000Z</time>
      </trkpt>
      <trkpt lat="48.21423" lon="7.30378">
        <ele>557.9</ele>
        <time>2021-08-14T09:26:24.000Z</time>
      </trkpt>
      <trkpt lat="48.21422" lon="7.30364">
        <ele>558.8</ele>
        <time>2021-08-14T09:26:30.000Z</time>
      </trkpt>
      <trkpt lat="48.21423" lon="7.30349">
        <ele>560.3</ele>
        <time>2021-08-14T09:26:38.000Z</time>
      </trkpt>
      <trkpt lat="48.21418" lon="7.30337">
        <ele>559.4</ele>
        <time>2021-08-14T09:26:43.000Z</time>
      </trkpt>
      <trkpt lat="48.21417" lon="7.30322">
        <ele>560.9</ele>
        <time>2021-08-14T09:26:51.000Z</time>
      </trkpt>
      <trkpt lat="48.21413" lon="7.30309">
        <ele>563.7</ele>
        <time>2021-08-14T09:26:59.000Z</time>
      </trkpt>
      <trkpt lat="48.21413" lon="7.30295">
        <ele>565.9</ele>
        <time>2021-08-14T09:27:07.000Z</time>
      </trkpt>
      <trkpt lat="48.21415" lon="7.30281">
        <ele>567.6</ele>
        <time>2021-08-14T09:27:12.000Z</time>
      </trkpt>
      <trkpt lat="48.21421" lon="7.30271">
        <ele>570.6</ele>
        <time>2021-08-14T09:27:19.000Z</time>
      </trkpt>
      <trkpt lat="48.21421" lon="7.30257">
        <ele>572.5</ele>
        <time>2021-08-14T09:27:28.000Z</time>
      </trkpt>
      <trkpt lat="48.21415" lon="7.30246">
        <ele>573.1</ele>
        <time>2021-08-14T09:27:35.000Z</time>
      </trkpt>
      <trkpt lat="48.21409" lon="7.3023">
        <ele>577</ele>
        <time>2021-08-14T09:27:42.000Z</time>
      </trkpt>
      <trkpt lat="48.21403" lon="7.30218">
        <ele>580.2</ele>
        <time>2021-08-14T09:27:55.000Z</time>
      </trkpt>
      <trkpt lat="48.21394" lon="7.30216">
        <ele>582.9</ele>
        <time>2021-08-14T09:28:05.000Z</time>
      </trkpt>
      <trkpt lat="48.21384" lon="7.30217">
        <ele>585.2</ele>
        <time>2021-08-14T09:28:11.000Z</time>
      </trkpt>
      <trkpt lat="48.21375" lon="7.3022">
        <ele>587</ele>
        <time>2021-08-14T09:28:17.000Z</time>
      </trkpt>
      <trkpt lat="48.21368" lon="7.30229">
        <ele>587.7</ele>
        <time>2021-08-14T09:28:24.000Z</time>
      </trkpt>
      <trkpt lat="48.21363" lon="7.30242">
        <ele>587.3</ele>
        <time>2021-08-14T09:28:34.000Z</time>
      </trkpt>
      <trkpt lat="48.21356" lon="7.30252">
        <ele>587.7</ele>
        <time>2021-08-14T09:28:42.000Z</time>
      </trkpt>
      <trkpt lat="48.21353" lon="7.30266">
        <ele>586</ele>
        <time>2021-08-14T09:28:50.000Z</time>
      </trkpt>
      <trkpt lat="48.21352" lon="7.30281">
        <ele>583.5</ele>
        <time>2021-08-14T09:29:00.000Z</time>
      </trkpt>
      <trkpt lat="48.21347" lon="7.30295">
        <ele>582</ele>
        <time>2021-08-14T09:29:08.000Z</time>
      </trkpt>
      <trkpt lat="48.21344" lon="7.30309">
        <ele>580.1</ele>
        <time>2021-08-14T09:29:15.000Z</time>
      </trkpt>
      <trkpt lat="48.21339" lon="7.30321">
        <ele>579</ele>
        <time>2021-08-14T09:29:25.000Z</time>
      </trkpt>
      <trkpt lat="48.21333" lon="7.30331">
        <ele>578.9</ele>
        <time>2021-08-14T09:29:32.000Z</time>
      </trkpt>
      <trkpt lat="48.21328" lon="7.30343">
        <ele>579.4</ele>
        <time>2021-08-14T09:29:39.000Z</time>
      </trkpt>
      <trkpt lat="48.21322" lon="7.30356">
        <ele>579.7</ele>
        <time>2021-08-14T09:29:48.000Z</time>
      </trkpt>
      <trkpt lat="48.21319" lon="7.30369">
        <ele>578.9</ele>
        <time>2021-08-14T09:29:55.000Z</time>
      </trkpt>
      <trkpt lat="48.21314" lon="7.30383">
        <ele>578.7</ele>
        <time>2021-08-14T09:30:03.000Z</time>
      </trkpt>
      <trkpt lat="48.21313" lon="7.30396">
        <ele>576.6</ele>
        <time>2021-08-14T09:30:10.000Z</time>
      </trkpt>
      <trkpt lat="48.2131" lon="7.30409">
        <ele>575.6</ele>
        <time>2021-08-14T09:30:17.000Z</time>
      </trkpt>
      <trkpt lat="48.21301" lon="7.30418">
        <ele>577.9</ele>
        <time>2021-08-14T09:30:23.000Z</time>
      </trkpt>
      <trkpt lat="48.21296" lon="7.30429">
        <ele>578.5</ele>
        <time>2021-08-14T09:30:29.000Z</time>
      </trkpt>
      <trkpt lat="48.21296" lon="7.30444">
        <ele>575.2</ele>
        <time>2021-08-14T09:30:37.000Z</time>
      </trkpt>
      <trkpt lat="48.21291" lon="7.30458">
        <ele>574.7</ele>
        <time>2021-08-14T09:30:46.000Z</time>
      </trkpt>
      <trkpt lat="48.21284" lon="7.30469">
        <ele>575.9</ele>
        <time>2021-08-14T09:30:53.000Z</time>
      </trkpt>
      <trkpt lat="48.2128" lon="7.30482">
        <ele>575.9</ele>
        <time>2021-08-14T09:31:01.000Z</time>
      </trkpt>
      <trkpt lat="48.21273" lon="7.30492">
        <ele>577.6</ele>
        <time>2021-08-14T09:31:08.000Z</time>
      </trkpt>
      <trkpt lat="48.21267" lon="7.30504">
        <ele>578.9</ele>
        <time>2021-08-14T09:31:16.000Z</time>
      </trkpt>
      <trkpt lat="48.21267" lon="7.30519">
        <ele>577.4</ele>
        <time>2021-08-14T09:31:23.000Z</time>
      </trkpt>
      <trkpt lat="48.21265" lon="7.30532">
        <ele>577.5</ele>
        <time>2021-08-14T09:31:29.000Z</time>
      </trkpt>
      <trkpt lat="48.2126" lon="7.30546">
        <ele>578.6</ele>
        <time>2021-08-14T09:31:36.000Z</time>
      </trkpt>
      <trkpt lat="48.21262" lon="7.30559">
        <ele>576.2</ele>
        <time>2021-08-14T09:31:42.000Z</time>
      </trkpt>
      <trkpt lat="48.21259" lon="7.30571">
        <ele>576.7</ele>
        <time>2021-08-14T09:31:51.000Z</time>
      </trkpt>
      <trkpt lat="48.21257" lon="7.30585">
        <ele>576.5</ele>
        <time>2021-08-14T09:32:01.000Z</time>
      </trkpt>
      <trkpt lat="48.21253" lon="7.30598">
        <ele>577.9</ele>
        <time>2021-08-14T09:32:09.000Z</time>
      </trkpt>
      <trkpt lat="48.21252" lon="7.30613">
        <ele>577.9</ele>
        <time>2021-08-14T09:32:20.000Z</time>
      </trkpt>
      <trkpt lat="48.21247" lon="7.30626">
        <ele>577.8</ele>
        <time>2021-08-14T09:32:31.000Z</time>
      </trkpt>
      <trkpt lat="48.21238" lon="7.30631">
        <ele>576.7</ele>
        <time>2021-08-14T09:32:40.000Z</time>
      </trkpt>
      <trkpt lat="48.21231" lon="7.30641">
        <ele>575.1</ele>
        <time>2021-08-14T09:32:47.000Z</time>
      </trkpt>
      <trkpt lat="48.21222" lon="7.30637">
        <ele>574.6</ele>
        <time>2021-08-14T09:33:03.000Z</time>
      </trkpt>
      <trkpt lat="48.21229" lon="7.30626">
        <ele>576.4</ele>
        <time>2021-08-14T09:33:18.000Z</time>
      </trkpt>
      <trkpt lat="48.21228" lon="7.3061">
        <ele>578</ele>
        <time>2021-08-14T09:33:26.000Z</time>
      </trkpt>
      <trkpt lat="48.21218" lon="7.30606">
        <ele>578.2</ele>
        <time>2021-08-14T09:33:31.000Z</time>
      </trkpt>
      <trkpt lat="48.21212" lon="7.30593">
        <ele>579.9</ele>
        <time>2021-08-14T09:33:44.000Z</time>
      </trkpt>
      <trkpt lat="48.21205" lon="7.30583">
        <ele>581.6</ele>
        <time>2021-08-14T09:33:51.000Z</time>
      </trkpt>
      <trkpt lat="48.21199" lon="7.30573">
        <ele>583.9</ele>
        <time>2021-08-14T09:34:01.000Z</time>
      </trkpt>
      <trkpt lat="48.21207" lon="7.30579">
        <ele>582.3</ele>
        <time>2021-08-14T09:34:47.000Z</time>
      </trkpt>
      <trkpt lat="48.21217" lon="7.30584">
        <ele>581.1</ele>
        <time>2021-08-14T09:34:55.000Z</time>
      </trkpt>
      <trkpt lat="48.2122" lon="7.306">
        <ele>579</ele>
        <time>2021-08-14T09:35:02.000Z</time>
      </trkpt>
      <trkpt lat="48.21224" lon="7.30613">
        <ele>577.6</ele>
        <time>2021-08-14T09:35:38.000Z</time>
      </trkpt>
      <trkpt lat="48.21225" lon="7.30627">
        <ele>576</ele>
        <time>2021-08-14T09:35:46.000Z</time>
      </trkpt>
      <trkpt lat="48.21227" lon="7.3064">
        <ele>574.7</ele>
        <time>2021-08-14T09:35:56.000Z</time>
      </trkpt>
      <trkpt lat="48.21226" lon="7.30656">
        <ele>572.9</ele>
        <time>2021-08-14T09:36:06.000Z</time>
      </trkpt>
      <trkpt lat="48.21216" lon="7.30658">
        <ele>571</ele>
        <time>2021-08-14T09:36:16.000Z</time>
      </trkpt>
      <trkpt lat="48.21208" lon="7.30651">
        <ele>570.9</ele>
        <time>2021-08-14T09:36:26.000Z</time>
      </trkpt>
      <trkpt lat="48.21208" lon="7.30637">
        <ele>573</ele>
        <time>2021-08-14T09:36:32.000Z</time>
      </trkpt>
      <trkpt lat="48.21203" lon="7.30626">
        <ele>574.4</ele>
        <time>2021-08-14T09:36:43.000Z</time>
      </trkpt>
      <trkpt lat="48.21195" lon="7.30618">
        <ele>575.4</ele>
        <time>2021-08-14T09:36:52.000Z</time>
      </trkpt>
      <trkpt lat="48.21185" lon="7.30611">
        <ele>576.3</ele>
        <time>2021-08-14T09:36:59.000Z</time>
      </trkpt>
      <trkpt lat="48.21176" lon="7.3061">
        <ele>576.2</ele>
        <time>2021-08-14T09:37:06.000Z</time>
      </trkpt>
      <trkpt lat="48.21166" lon="7.30611">
        <ele>575.6</ele>
        <time>2021-08-14T09:37:12.000Z</time>
      </trkpt>
      <trkpt lat="48.21157" lon="7.30614">
        <ele>571.1</ele>
        <time>2021-08-14T09:37:18.000Z</time>
      </trkpt>
      <trkpt lat="48.21147" lon="7.30619">
        <ele>566.2</ele>
        <time>2021-08-14T09:37:25.000Z</time>
      </trkpt>
      <trkpt lat="48.21139" lon="7.30628">
        <ele>561.2</ele>
        <time>2021-08-14T09:37:31.000Z</time>
      </trkpt>
      <trkpt lat="48.21129" lon="7.30625">
        <ele>558.3</ele>
        <time>2021-08-14T09:37:40.000Z</time>
      </trkpt>
      <trkpt lat="48.2112" lon="7.30628">
        <ele>554.2</ele>
        <time>2021-08-14T09:37:48.000Z</time>
      </trkpt>
      <trkpt lat="48.21111" lon="7.30628">
        <ele>551.1</ele>
        <time>2021-08-14T09:38:00.000Z</time>
      </trkpt>
      <trkpt lat="48.21104" lon="7.30619">
        <ele>550.6</ele>
        <time>2021-08-14T09:38:06.000Z</time>
      </trkpt>
      <trkpt lat="48.21095" lon="7.30616">
        <ele>547.9</ele>
        <time>2021-08-14T09:38:16.000Z</time>
      </trkpt>
      <trkpt lat="48.21087" lon="7.30611">
        <ele>546.1</ele>
        <time>2021-08-14T09:38:25.000Z</time>
      </trkpt>
      <trkpt lat="48.2108" lon="7.30602">
        <ele>546.2</ele>
        <time>2021-08-14T09:38:33.000Z</time>
      </trkpt>
      <trkpt lat="48.21074" lon="7.30592">
        <ele>547.3</ele>
        <time>2021-08-14T09:38:41.000Z</time>
      </trkpt>
      <trkpt lat="48.21067" lon="7.30581">
        <ele>548.3</ele>
        <time>2021-08-14T09:38:49.000Z</time>
      </trkpt>
      <trkpt lat="48.21058" lon="7.30575">
        <ele>548.5</ele>
        <time>2021-08-14T09:38:56.000Z</time>
      </trkpt>
      <trkpt lat="48.21051" lon="7.30566">
        <ele>549.2</ele>
        <time>2021-08-14T09:39:03.000Z</time>
      </trkpt>
      <trkpt lat="48.21042" lon="7.30561">
        <ele>548.8</ele>
        <time>2021-08-14T09:39:14.000Z</time>
      </trkpt>
      <trkpt lat="48.21035" lon="7.30551">
        <ele>549.8</ele>
        <time>2021-08-14T09:39:27.000Z</time>
      </trkpt>
      <trkpt lat="48.21026" lon="7.30545">
        <ele>549.2</ele>
        <time>2021-08-14T09:39:39.000Z</time>
      </trkpt>
      <trkpt lat="48.21018" lon="7.30537">
        <ele>548.9</ele>
        <time>2021-08-14T09:39:45.000Z</time>
      </trkpt>
      <trkpt lat="48.21009" lon="7.30531">
        <ele>547.9</ele>
        <time>2021-08-14T09:39:50.000Z</time>
      </trkpt>
      <trkpt lat="48.21001" lon="7.30524">
        <ele>547.3</ele>
        <time>2021-08-14T09:40:01.000Z</time>
      </trkpt>
      <trkpt lat="48.20992" lon="7.30524">
        <ele>548.5</ele>
        <time>2021-08-14T09:40:08.000Z</time>
      </trkpt>
      <trkpt lat="48.20987" lon="7.30536">
        <ele>547.3</ele>
        <time>2021-08-14T09:40:17.000Z</time>
      </trkpt>
      <trkpt lat="48.20994" lon="7.30546">
        <ele>543.7</ele>
        <time>2021-08-14T09:40:27.000Z</time>
      </trkpt>
      <trkpt lat="48.20994" lon="7.3056">
        <ele>540.7</ele>
        <time>2021-08-14T09:40:35.000Z</time>
      </trkpt>
      <trkpt lat="48.20991" lon="7.30574">
        <ele>538.5</ele>
        <time>2021-08-14T09:40:41.000Z</time>
      </trkpt>
      <trkpt lat="48.20994" lon="7.30587">
        <ele>535.2</ele>
        <time>2021-08-14T09:40:52.000Z</time>
      </trkpt>
      <trkpt lat="48.20997" lon="7.30602">
        <ele>532.4</ele>
        <time>2021-08-14T09:41:01.000Z</time>
      </trkpt>
      <trkpt lat="48.21001" lon="7.30616">
        <ele>529.8</ele>
        <time>2021-08-14T09:41:12.000Z</time>
      </trkpt>
      <trkpt lat="48.20997" lon="7.30629">
        <ele>528.8</ele>
        <time>2021-08-14T09:41:26.000Z</time>
      </trkpt>
      <trkpt lat="48.20999" lon="7.30644">
        <ele>526.5</ele>
        <time>2021-08-14T09:41:35.000Z</time>
      </trkpt>
      <trkpt lat="48.21003" lon="7.30656">
        <ele>524.8</ele>
        <time>2021-08-14T09:41:47.000Z</time>
      </trkpt>
      <trkpt lat="48.21004" lon="7.30671">
        <ele>522.9</ele>
        <time>2021-08-14T09:41:57.000Z</time>
      </trkpt>
      <trkpt lat="48.21002" lon="7.30684">
        <ele>520.9</ele>
        <time>2021-08-14T09:42:05.000Z</time>
      </trkpt>
      <trkpt lat="48.21005" lon="7.30699">
        <ele>519.2</ele>
        <time>2021-08-14T09:42:13.000Z</time>
      </trkpt>
      <trkpt lat="48.2101" lon="7.30711">
        <ele>517.8</ele>
        <time>2021-08-14T09:42:20.000Z</time>
      </trkpt>
      <trkpt lat="48.21013" lon="7.30726">
        <ele>515.9</ele>
        <time>2021-08-14T09:42:29.000Z</time>
      </trkpt>
      <trkpt lat="48.21012" lon="7.3074">
        <ele>513.9</ele>
        <time>2021-08-14T09:42:38.000Z</time>
      </trkpt>
      <trkpt lat="48.21011" lon="7.30754">
        <ele>511.9</ele>
        <time>2021-08-14T09:42:45.000Z</time>
      </trkpt>
      <trkpt lat="48.21008" lon="7.30768">
        <ele>510.2</ele>
        <time>2021-08-14T09:42:53.000Z</time>
      </trkpt>
      <trkpt lat="48.21005" lon="7.30781">
        <ele>508.7</ele>
        <time>2021-08-14T09:43:01.000Z</time>
      </trkpt>
      <trkpt lat="48.20998" lon="7.30791">
        <ele>508.2</ele>
        <time>2021-08-14T09:43:08.000Z</time>
      </trkpt>
      <trkpt lat="48.20995" lon="7.30806">
        <ele>507.6</ele>
        <time>2021-08-14T09:43:16.000Z</time>
      </trkpt>
      <trkpt lat="48.20997" lon="7.3082">
        <ele>505.7</ele>
        <time>2021-08-14T09:43:23.000Z</time>
      </trkpt>
      <trkpt lat="48.21001" lon="7.30834">
        <ele>503</ele>
        <time>2021-08-14T09:43:32.000Z</time>
      </trkpt>
      <trkpt lat="48.21001" lon="7.30848">
        <ele>501.1</ele>
        <time>2021-08-14T09:43:39.000Z</time>
      </trkpt>
      <trkpt lat="48.20998" lon="7.30861">
        <ele>500.6</ele>
        <time>2021-08-14T09:43:47.000Z</time>
      </trkpt>
      <trkpt lat="48.20996" lon="7.30876">
        <ele>499.4</ele>
        <time>2021-08-14T09:43:53.000Z</time>
      </trkpt>
      <trkpt lat="48.20998" lon="7.30889">
        <ele>497</ele>
        <time>2021-08-14T09:44:02.000Z</time>
      </trkpt>
      <trkpt lat="48.20993" lon="7.30903">
        <ele>497.4</ele>
        <time>2021-08-14T09:44:11.000Z</time>
      </trkpt>
      <trkpt lat="48.2099" lon="7.30917">
        <ele>497.2</ele>
        <time>2021-08-14T09:44:19.000Z</time>
      </trkpt>
      <trkpt lat="48.2099" lon="7.30931">
        <ele>496.2</ele>
        <time>2021-08-14T09:44:26.000Z</time>
      </trkpt>
      <trkpt lat="48.20992" lon="7.30946">
        <ele>493.9</ele>
        <time>2021-08-14T09:44:33.000Z</time>
      </trkpt>
      <trkpt lat="48.2099" lon="7.3096">
        <ele>493.4</ele>
        <time>2021-08-14T09:44:41.000Z</time>
      </trkpt>
      <trkpt lat="48.20995" lon="7.30973">
        <ele>490.3</ele>
        <time>2021-08-14T09:44:47.000Z</time>
      </trkpt>
      <trkpt lat="48.20997" lon="7.30987">
        <ele>488.2</ele>
        <time>2021-08-14T09:44:54.000Z</time>
      </trkpt>
      <trkpt lat="48.20997" lon="7.31001">
        <ele>487.3</ele>
        <time>2021-08-14T09:45:01.000Z</time>
      </trkpt>
      <trkpt lat="48.20996" lon="7.31015">
        <ele>485.9</ele>
        <time>2021-08-14T09:45:12.000Z</time>
      </trkpt>
      <trkpt lat="48.20996" lon="7.31028">
        <ele>484.5</ele>
        <time>2021-08-14T09:45:21.000Z</time>
      </trkpt>
      <trkpt lat="48.20997" lon="7.31044">
        <ele>482.3</ele>
        <time>2021-08-14T09:45:29.000Z</time>
      </trkpt>
      <trkpt lat="48.20998" lon="7.31059">
        <ele>480.5</ele>
        <time>2021-08-14T09:45:37.000Z</time>
      </trkpt>
      <trkpt lat="48.20999" lon="7.31072">
        <ele>478.6</ele>
        <time>2021-08-14T09:45:45.000Z</time>
      </trkpt>
      <trkpt lat="48.20999" lon="7.31086">
        <ele>477.3</ele>
        <time>2021-08-14T09:45:53.000Z</time>
      </trkpt>
      <trkpt lat="48.20997" lon="7.311">
        <ele>476.5</ele>
        <time>2021-08-14T09:46:00.000Z</time>
      </trkpt>
      <trkpt lat="48.20996" lon="7.31115">
        <ele>475.5</ele>
        <time>2021-08-14T09:46:08.000Z</time>
      </trkpt>
      <trkpt lat="48.20996" lon="7.31129">
        <ele>473.9</ele>
        <time>2021-08-14T09:46:16.000Z</time>
      </trkpt>
      <trkpt lat="48.20999" lon="7.31143">
        <ele>471.7</ele>
        <time>2021-08-14T09:46:23.000Z</time>
      </trkpt>
      <trkpt lat="48.20999" lon="7.31157">
        <ele>470.3</ele>
        <time>2021-08-14T09:46:33.000Z</time>
      </trkpt>
      <trkpt lat="48.20996" lon="7.3117">
        <ele>469.5</ele>
        <time>2021-08-14T09:46:40.000Z</time>
      </trkpt>
      <trkpt lat="48.20995" lon="7.31184">
        <ele>467.9</ele>
        <time>2021-08-14T09:46:49.000Z</time>
      </trkpt>
      <trkpt lat="48.20994" lon="7.31199">
        <ele>466</ele>
        <time>2021-08-14T09:46:57.000Z</time>
      </trkpt>
      <trkpt lat="48.20992" lon="7.31212">
        <ele>464.4</ele>
        <time>2021-08-14T09:47:05.000Z</time>
      </trkpt>
      <trkpt lat="48.20993" lon="7.31227">
        <ele>462.2</ele>
        <time>2021-08-14T09:47:14.000Z</time>
      </trkpt>
      <trkpt lat="48.20991" lon="7.3124">
        <ele>460.5</ele>
        <time>2021-08-14T09:47:22.000Z</time>
      </trkpt>
      <trkpt lat="48.20987" lon="7.31254">
        <ele>458.6</ele>
        <time>2021-08-14T09:47:30.000Z</time>
      </trkpt>
      <trkpt lat="48.20985" lon="7.31268">
        <ele>455.6</ele>
        <time>2021-08-14T09:47:38.000Z</time>
      </trkpt>
      <trkpt lat="48.20982" lon="7.31281">
        <ele>452.8</ele>
        <time>2021-08-14T09:47:47.000Z</time>
      </trkpt>
      <trkpt lat="48.20988" lon="7.31299">
        <ele>447.7</ele>
        <time>2021-08-14T09:48:19.000Z</time>
      </trkpt>
      <trkpt lat="48.2098" lon="7.31307">
        <ele>446.5</ele>
        <time>2021-08-14T09:48:30.000Z</time>
      </trkpt>
      <trkpt lat="48.20973" lon="7.31317">
        <ele>444.4</ele>
        <time>2021-08-14T09:48:38.000Z</time>
      </trkpt>
      <trkpt lat="48.20965" lon="7.31328">
        <ele>442.1</ele>
        <time>2021-08-14T09:48:47.000Z</time>
      </trkpt>
      <trkpt lat="48.20959" lon="7.31339">
        <ele>439.8</ele>
        <time>2021-08-14T09:48:55.000Z</time>
      </trkpt>
      <trkpt lat="48.20965" lon="7.3133">
        <ele>441.7</ele>
        <time>2021-08-14T09:49:23.000Z</time>
      </trkpt>
      <trkpt lat="48.20968" lon="7.31316">
        <ele>445</ele>
        <time>2021-08-14T09:49:33.000Z</time>
      </trkpt>
      <trkpt lat="48.2097" lon="7.31302">
        <ele>448.4</ele>
        <time>2021-08-14T09:49:40.000Z</time>
      </trkpt>
      <trkpt lat="48.20961" lon="7.31302">
        <ele>449.1</ele>
        <time>2021-08-14T09:50:04.000Z</time>
      </trkpt>
      <trkpt lat="48.20966" lon="7.31314">
        <ele>445.7</ele>
        <time>2021-08-14T09:50:37.000Z</time>
      </trkpt>
      <trkpt lat="48.20964" lon="7.31328">
        <ele>442.3</ele>
        <time>2021-08-14T09:50:44.000Z</time>
      </trkpt>
      <trkpt lat="48.20958" lon="7.3134">
        <ele>439.7</ele>
        <time>2021-08-14T09:50:53.000Z</time>
      </trkpt>
      <trkpt lat="48.20953" lon="7.31352">
        <ele>437.3</ele>
        <time>2021-08-14T09:51:01.000Z</time>
      </trkpt>
      <trkpt lat="48.20944" lon="7.31349">
        <ele>438.1</ele>
        <time>2021-08-14T09:51:12.000Z</time>
      </trkpt>
      <trkpt lat="48.20934" lon="7.31348">
        <ele>438.6</ele>
        <time>2021-08-14T09:51:19.000Z</time>
      </trkpt>
      <trkpt lat="48.2093" lon="7.31335">
        <ele>442.1</ele>
        <time>2021-08-14T09:52:14.000Z</time>
      </trkpt>
      <trkpt lat="48.20924" lon="7.31324">
        <ele>445.5</ele>
        <time>2021-08-14T09:52:22.000Z</time>
      </trkpt>
      <trkpt lat="48.20918" lon="7.31311">
        <ele>449.5</ele>
        <time>2021-08-14T09:52:31.000Z</time>
      </trkpt>
      <trkpt lat="48.20914" lon="7.31299">
        <ele>452.5</ele>
        <time>2021-08-14T09:52:40.000Z</time>
      </trkpt>
      <trkpt lat="48.20907" lon="7.3129">
        <ele>453.3</ele>
        <time>2021-08-14T09:52:48.000Z</time>
      </trkpt>
      <trkpt lat="48.20899" lon="7.31282">
        <ele>453.5</ele>
        <time>2021-08-14T09:52:56.000Z</time>
      </trkpt>
      <trkpt lat="48.20891" lon="7.31273">
        <ele>453.9</ele>
        <time>2021-08-14T09:53:04.000Z</time>
      </trkpt>
      <trkpt lat="48.20886" lon="7.31261">
        <ele>456.6</ele>
        <time>2021-08-14T09:53:13.000Z</time>
      </trkpt>
      <trkpt lat="48.20881" lon="7.31249">
        <ele>458.9</ele>
        <time>2021-08-14T09:53:23.000Z</time>
      </trkpt>
      <trkpt lat="48.20872" lon="7.3124">
        <ele>459.9</ele>
        <time>2021-08-14T09:53:33.000Z</time>
      </trkpt>
      <trkpt lat="48.20865" lon="7.31232">
        <ele>461.2</ele>
        <time>2021-08-14T09:53:40.000Z</time>
      </trkpt>
      <trkpt lat="48.20855" lon="7.31231">
        <ele>459.1</ele>
        <time>2021-08-14T09:53:50.000Z</time>
      </trkpt>
      <trkpt lat="48.20846" lon="7.31229">
        <ele>458.3</ele>
        <time>2021-08-14T09:53:57.000Z</time>
      </trkpt>
      <trkpt lat="48.20837" lon="7.31224">
        <ele>458.1</ele>
        <time>2021-08-14T09:54:05.000Z</time>
      </trkpt>
      <trkpt lat="48.20827" lon="7.31221">
        <ele>457.3</ele>
        <time>2021-08-14T09:54:11.000Z</time>
      </trkpt>
      <trkpt lat="48.20821" lon="7.31211">
        <ele>459.9</ele>
        <time>2021-08-14T09:54:20.000Z</time>
      </trkpt>
      <trkpt lat="48.20812" lon="7.31204">
        <ele>460.5</ele>
        <time>2021-08-14T09:54:32.000Z</time>
      </trkpt>
      <trkpt lat="48.20804" lon="7.31196">
        <ele>461.6</ele>
        <time>2021-08-14T09:54:42.000Z</time>
      </trkpt>
      <trkpt lat="48.20796" lon="7.31189">
        <ele>462.6</ele>
        <time>2021-08-14T09:54:48.000Z</time>
      </trkpt>
      <trkpt lat="48.20788" lon="7.3118">
        <ele>464.5</ele>
        <time>2021-08-14T09:54:58.000Z</time>
      </trkpt>
      <trkpt lat="48.2078" lon="7.31172">
        <ele>466.1</ele>
        <time>2021-08-14T09:55:05.000Z</time>
      </trkpt>
      <trkpt lat="48.20774" lon="7.31162">
        <ele>469.3</ele>
        <time>2021-08-14T09:55:14.000Z</time>
      </trkpt>
      <trkpt lat="48.20767" lon="7.31151">
        <ele>472.6</ele>
        <time>2021-08-14T09:55:23.000Z</time>
      </trkpt>
      <trkpt lat="48.2076" lon="7.31143">
        <ele>474.6</ele>
        <time>2021-08-14T09:55:31.000Z</time>
      </trkpt>
      <trkpt lat="48.20752" lon="7.31133">
        <ele>477.2</ele>
        <time>2021-08-14T09:55:43.000Z</time>
      </trkpt>
      <trkpt lat="48.20744" lon="7.31123">
        <ele>479.4</ele>
        <time>2021-08-14T09:55:51.000Z</time>
      </trkpt>
      <trkpt lat="48.20735" lon="7.31119">
        <ele>478.3</ele>
        <time>2021-08-14T09:55:58.000Z</time>
      </trkpt>
      <trkpt lat="48.20726" lon="7.31115">
        <ele>477.1</ele>
        <time>2021-08-14T09:56:07.000Z</time>
      </trkpt>
      <trkpt lat="48.20717" lon="7.31111">
        <ele>475.8</ele>
        <time>2021-08-14T09:56:17.000Z</time>
      </trkpt>
      <trkpt lat="48.20708" lon="7.31104">
        <ele>475.6</ele>
        <time>2021-08-14T09:56:26.000Z</time>
      </trkpt>
      <trkpt lat="48.20701" lon="7.31096">
        <ele>476.7</ele>
        <time>2021-08-14T09:56:37.000Z</time>
      </trkpt>
      <trkpt lat="48.20694" lon="7.31085">
        <ele>478.8</ele>
        <time>2021-08-14T09:56:45.000Z</time>
      </trkpt>
      <trkpt lat="48.20689" lon="7.31073">
        <ele>480.3</ele>
        <time>2021-08-14T09:56:52.000Z</time>
      </trkpt>
      <trkpt lat="48.20685" lon="7.3106">
        <ele>482</ele>
        <time>2021-08-14T09:57:02.000Z</time>
      </trkpt>
      <trkpt lat="48.20682" lon="7.31047">
        <ele>484</ele>
        <time>2021-08-14T09:57:10.000Z</time>
      </trkpt>
      <trkpt lat="48.20676" lon="7.31034">
        <ele>485</ele>
        <time>2021-08-14T09:57:19.000Z</time>
      </trkpt>
      <trkpt lat="48.20668" lon="7.31025">
        <ele>483.8</ele>
        <time>2021-08-14T09:57:28.000Z</time>
      </trkpt>
      <trkpt lat="48.20664" lon="7.31011">
        <ele>485.4</ele>
        <time>2021-08-14T09:57:36.000Z</time>
      </trkpt>
      <trkpt lat="48.20661" lon="7.30997">
        <ele>488.4</ele>
        <time>2021-08-14T09:57:45.000Z</time>
      </trkpt>
      <trkpt lat="48.20657" lon="7.30984">
        <ele>490.7</ele>
        <time>2021-08-14T09:57:52.000Z</time>
      </trkpt>
      <trkpt lat="48.20656" lon="7.30969">
        <ele>494.8</ele>
        <time>2021-08-14T09:58:02.000Z</time>
      </trkpt>
      <trkpt lat="48.20653" lon="7.30955">
        <ele>498.2</ele>
        <time>2021-08-14T09:58:10.000Z</time>
      </trkpt>
      <trkpt lat="48.20651" lon="7.30942">
        <ele>501.6</ele>
        <time>2021-08-14T09:58:20.000Z</time>
      </trkpt>
      <trkpt lat="48.2065" lon="7.30929">
        <ele>505.4</ele>
        <time>2021-08-14T09:58:31.000Z</time>
      </trkpt>
      <trkpt lat="48.20648" lon="7.30915">
        <ele>508.9</ele>
        <time>2021-08-14T09:58:40.000Z</time>
      </trkpt>
      <trkpt lat="48.20644" lon="7.30902">
        <ele>512.2</ele>
        <time>2021-08-14T09:58:48.000Z</time>
      </trkpt>
      <trkpt lat="48.20638" lon="7.3089">
        <ele>514.7</ele>
        <time>2021-08-14T09:58:57.000Z</time>
      </trkpt>
      <trkpt lat="48.20631" lon="7.3088">
        <ele>516.6</ele>
        <time>2021-08-14T09:59:08.000Z</time>
      </trkpt>
      <trkpt lat="48.20626" lon="7.30867">
        <ele>519.9</ele>
        <time>2021-08-14T09:59:16.000Z</time>
      </trkpt>
      <trkpt lat="48.2062" lon="7.30856">
        <ele>522.3</ele>
        <time>2021-08-14T09:59:25.000Z</time>
      </trkpt>
      <trkpt lat="48.20611" lon="7.30852">
        <ele>522.2</ele>
        <time>2021-08-14T09:59:33.000Z</time>
      </trkpt>
      <trkpt lat="48.206" lon="7.30851">
        <ele>520.7</ele>
        <time>2021-08-14T09:59:41.000Z</time>
      </trkpt>
      <trkpt lat="48.20589" lon="7.30851">
        <ele>519.1</ele>
        <time>2021-08-14T09:59:47.000Z</time>
      </trkpt>
      <trkpt lat="48.2058" lon="7.30855">
        <ele>517.5</ele>
        <time>2021-08-14T09:59:57.000Z</time>
      </trkpt>
      <trkpt lat="48.20571" lon="7.30861">
        <ele>517.2</ele>
        <time>2021-08-14T10:00:07.000Z</time>
      </trkpt>
      <trkpt lat="48.20562" lon="7.30868">
        <ele>516.8</ele>
        <time>2021-08-14T10:00:15.000Z</time>
      </trkpt>
      <trkpt lat="48.20552" lon="7.3087">
        <ele>518.1</ele>
        <time>2021-08-14T10:00:23.000Z</time>
      </trkpt>
      <trkpt lat="48.20542" lon="7.30874">
        <ele>518.4</ele>
        <time>2021-08-14T10:00:38.000Z</time>
      </trkpt>
      <trkpt lat="48.20533" lon="7.30875">
        <ele>520.1</ele>
        <time>2021-08-14T10:00:43.000Z</time>
      </trkpt>
      <trkpt lat="48.20523" lon="7.3088">
        <ele>520</ele>
        <time>2021-08-14T10:00:55.000Z</time>
      </trkpt>
      <trkpt lat="48.20516" lon="7.30889">
        <ele>518</ele>
        <time>2021-08-14T10:01:04.000Z</time>
      </trkpt>
      <trkpt lat="48.20502" lon="7.3089">
        <ele>520.2</ele>
        <time>2021-08-14T10:01:56.000Z</time>
      </trkpt>
      <trkpt lat="48.20511" lon="7.30894">
        <ele>517</ele>
        <time>2021-08-14T10:02:32.000Z</time>
      </trkpt>
      <trkpt lat="48.20502" lon="7.30887">
        <ele>521.5</ele>
        <time>2021-08-14T10:03:48.000Z</time>
      </trkpt>
      <trkpt lat="48.20495" lon="7.30896">
        <ele>518</ele>
        <time>2021-08-14T10:04:02.000Z</time>
      </trkpt>
      <trkpt lat="48.20486" lon="7.30897">
        <ele>516.8</ele>
        <time>2021-08-14T10:04:08.000Z</time>
      </trkpt>
      <trkpt lat="48.20477" lon="7.30903">
        <ele>514</ele>
        <time>2021-08-14T10:04:15.000Z</time>
      </trkpt>
      <trkpt lat="48.20468" lon="7.30907">
        <ele>512.1</ele>
        <time>2021-08-14T10:04:26.000Z</time>
      </trkpt>
      <trkpt lat="48.20458" lon="7.3091">
        <ele>510.3</ele>
        <time>2021-08-14T10:04:33.000Z</time>
      </trkpt>
      <trkpt lat="48.20449" lon="7.30906">
        <ele>511.4</ele>
        <time>2021-08-14T10:04:43.000Z</time>
      </trkpt>
      <trkpt lat="48.20442" lon="7.30896">
        <ele>514.5</ele>
        <time>2021-08-14T10:04:53.000Z</time>
      </trkpt>
      <trkpt lat="48.20436" lon="7.30884">
        <ele>518.2</ele>
        <time>2021-08-14T10:05:01.000Z</time>
      </trkpt>
      <trkpt lat="48.2043" lon="7.30874">
        <ele>521.5</ele>
        <time>2021-08-14T10:05:10.000Z</time>
      </trkpt>
      <trkpt lat="48.20425" lon="7.30862">
        <ele>525.1</ele>
        <time>2021-08-14T10:05:18.000Z</time>
      </trkpt>
      <trkpt lat="48.20424" lon="7.30848">
        <ele>529.6</ele>
        <time>2021-08-14T10:05:25.000Z</time>
      </trkpt>
      <trkpt lat="48.20417" lon="7.30838">
        <ele>532.6</ele>
        <time>2021-08-14T10:05:34.000Z</time>
      </trkpt>
      <trkpt lat="48.20408" lon="7.30837">
        <ele>529.3</ele>
        <time>2021-08-14T10:05:43.000Z</time>
      </trkpt>
      <trkpt lat="48.20399" lon="7.3083">
        <ele>527.4</ele>
        <time>2021-08-14T10:05:49.000Z</time>
      </trkpt>
      <trkpt lat="48.20394" lon="7.30817">
        <ele>528.3</ele>
        <time>2021-08-14T10:05:56.000Z</time>
      </trkpt>
      <trkpt lat="48.20393" lon="7.30802">
        <ele>530.5</ele>
        <time>2021-08-14T10:06:06.000Z</time>
      </trkpt>
      <trkpt lat="48.20389" lon="7.3079">
        <ele>531.5</ele>
        <time>2021-08-14T10:06:13.000Z</time>
      </trkpt>
      <trkpt lat="48.20381" lon="7.30782">
        <ele>529.2</ele>
        <time>2021-08-14T10:06:20.000Z</time>
      </trkpt>
      <trkpt lat="48.2038" lon="7.30768">
        <ele>531.4</ele>
        <time>2021-08-14T10:06:30.000Z</time>
      </trkpt>
      <trkpt lat="48.20375" lon="7.30756">
        <ele>530.9</ele>
        <time>2021-08-14T10:06:37.000Z</time>
      </trkpt>
      <trkpt lat="48.20368" lon="7.30748">
        <ele>528.2</ele>
        <time>2021-08-14T10:06:47.000Z</time>
      </trkpt>
      <trkpt lat="48.20359" lon="7.30746">
        <ele>523.4</ele>
        <time>2021-08-14T10:06:53.000Z</time>
      </trkpt>
      <trkpt lat="48.20349" lon="7.30741">
        <ele>518.2</ele>
        <time>2021-08-14T10:07:02.000Z</time>
      </trkpt>
      <trkpt lat="48.20341" lon="7.30735">
        <ele>513.5</ele>
        <time>2021-08-14T10:07:15.000Z</time>
      </trkpt>
      <trkpt lat="48.20348" lon="7.30745">
        <ele>517.4</ele>
        <time>2021-08-14T10:09:08.000Z</time>
      </trkpt>
      <trkpt lat="48.20357" lon="7.30743">
        <ele>522.5</ele>
        <time>2021-08-14T10:09:17.000Z</time>
      </trkpt>
      <trkpt lat="48.20366" lon="7.30737">
        <ele>526.8</ele>
        <time>2021-08-14T10:09:26.000Z</time>
      </trkpt>
      <trkpt lat="48.20367" lon="7.30723">
        <ele>527.3</ele>
        <time>2021-08-14T10:09:42.000Z</time>
      </trkpt>
      <trkpt lat="48.20369" lon="7.30708">
        <ele>527.9</ele>
        <time>2021-08-14T10:09:52.000Z</time>
      </trkpt>
      <trkpt lat="48.20367" lon="7.30695">
        <ele>526.7</ele>
        <time>2021-08-14T10:09:59.000Z</time>
      </trkpt>
      <trkpt lat="48.20371" lon="7.30683">
        <ele>528.9</ele>
        <time>2021-08-14T10:10:06.000Z</time>
      </trkpt>
      <trkpt lat="48.20371" lon="7.30669">
        <ele>528.7</ele>
        <time>2021-08-14T10:10:13.000Z</time>
      </trkpt>
      <trkpt lat="48.2037" lon="7.30656">
        <ele>528.5</ele>
        <time>2021-08-14T10:10:21.000Z</time>
      </trkpt>
      <trkpt lat="48.20375" lon="7.30645">
        <ele>532.1</ele>
        <time>2021-08-14T10:10:50.000Z</time>
      </trkpt>
      <trkpt lat="48.20382" lon="7.30636">
        <ele>536.4</ele>
        <time>2021-08-14T10:11:08.000Z</time>
      </trkpt>
      <trkpt lat="48.20388" lon="7.30625">
        <ele>539.9</ele>
        <time>2021-08-14T10:11:14.000Z</time>
      </trkpt>
      <trkpt lat="48.20389" lon="7.3061">
        <ele>540.7</ele>
        <time>2021-08-14T10:11:19.000Z</time>
      </trkpt>
      <trkpt lat="48.20386" lon="7.30597">
        <ele>539.9</ele>
        <time>2021-08-14T10:11:29.000Z</time>
      </trkpt>
      <trkpt lat="48.2038" lon="7.30585">
        <ele>537.4</ele>
        <time>2021-08-14T10:11:37.000Z</time>
      </trkpt>
      <trkpt lat="48.20373" lon="7.30577">
        <ele>534.6</ele>
        <time>2021-08-14T10:11:47.000Z</time>
      </trkpt>
      <trkpt lat="48.20365" lon="7.30571">
        <ele>531.3</ele>
        <time>2021-08-14T10:11:54.000Z</time>
      </trkpt>
      <trkpt lat="48.20359" lon="7.3056">
        <ele>529.9</ele>
        <time>2021-08-14T10:12:02.000Z</time>
      </trkpt>
      <trkpt lat="48.20353" lon="7.30545">
        <ele>528.6</ele>
        <time>2021-08-14T10:12:24.000Z</time>
      </trkpt>
      <trkpt lat="48.20355" lon="7.3053">
        <ele>531.1</ele>
        <time>2021-08-14T10:13:17.000Z</time>
      </trkpt>
      <trkpt lat="48.20347" lon="7.30552">
        <ele>525</ele>
        <time>2021-08-14T10:13:23.000Z</time>
      </trkpt>
      <trkpt lat="48.20345" lon="7.30571">
        <ele>522.1</ele>
        <time>2021-08-14T10:13:28.000Z</time>
      </trkpt>
      <trkpt lat="48.20336" lon="7.30595">
        <ele>515</ele>
        <time>2021-08-14T10:13:33.000Z</time>
      </trkpt>
      <trkpt lat="48.20342" lon="7.30583">
        <ele>519.2</ele>
        <time>2021-08-14T10:13:47.000Z</time>
      </trkpt>
      <trkpt lat="48.20349" lon="7.30574">
        <ele>523.3</ele>
        <time>2021-08-14T10:13:55.000Z</time>
      </trkpt>
      <trkpt lat="48.2035" lon="7.30552">
        <ele>526.3</ele>
        <time>2021-08-14T10:14:00.000Z</time>
      </trkpt>
      <trkpt lat="48.20348" lon="7.30539">
        <ele>526.9</ele>
        <time>2021-08-14T10:14:11.000Z</time>
      </trkpt>
      <trkpt lat="48.20357" lon="7.30542">
        <ele>530.8</ele>
        <time>2021-08-14T10:15:09.000Z</time>
      </trkpt>
      <trkpt lat="48.20365" lon="7.30549">
        <ele>533.5</ele>
        <time>2021-08-14T10:15:21.000Z</time>
      </trkpt>
      <trkpt lat="48.20373" lon="7.30556">
        <ele>536.5</ele>
        <time>2021-08-14T10:15:31.000Z</time>
      </trkpt>
      <trkpt lat="48.20382" lon="7.30562">
        <ele>540.1</ele>
        <time>2021-08-14T10:15:42.000Z</time>
      </trkpt>
      <trkpt lat="48.20391" lon="7.30567">
        <ele>543.8</ele>
        <time>2021-08-14T10:15:52.000Z</time>
      </trkpt>
      <trkpt lat="48.20398" lon="7.30559">
        <ele>547.9</ele>
        <time>2021-08-14T10:16:23.000Z</time>
      </trkpt>
      <trkpt lat="48.20407" lon="7.30564">
        <ele>551.4</ele>
        <time>2021-08-14T10:16:37.000Z</time>
      </trkpt>
      <trkpt lat="48.20407" lon="7.30578">
        <ele>550.8</ele>
        <time>2021-08-14T10:16:49.000Z</time>
      </trkpt>
      <trkpt lat="48.20399" lon="7.30602">
        <ele>545.9</ele>
        <time>2021-08-14T10:17:16.000Z</time>
      </trkpt>
      <trkpt lat="48.2039" lon="7.30622">
        <ele>541.2</ele>
        <time>2021-08-14T10:17:21.000Z</time>
      </trkpt>
      <trkpt lat="48.20388" lon="7.3064">
        <ele>539.2</ele>
        <time>2021-08-14T10:17:37.000Z</time>
      </trkpt>
      <trkpt lat="48.20403" lon="7.30633">
        <ele>547.4</ele>
        <time>2021-08-14T10:17:48.000Z</time>
      </trkpt>
      <trkpt lat="48.20409" lon="7.30622">
        <ele>551</ele>
        <time>2021-08-14T10:17:53.000Z</time>
      </trkpt>
      <trkpt lat="48.20418" lon="7.30614">
        <ele>555.6</ele>
        <time>2021-08-14T10:18:03.000Z</time>
      </trkpt>
      <trkpt lat="48.20428" lon="7.30611">
        <ele>560.8</ele>
        <time>2021-08-14T10:18:18.000Z</time>
      </trkpt>
      <trkpt lat="48.20436" lon="7.30604">
        <ele>565.4</ele>
        <time>2021-08-14T10:18:28.000Z</time>
      </trkpt>
      <trkpt lat="48.20445" lon="7.30601">
        <ele>570.7</ele>
        <time>2021-08-14T10:18:48.000Z</time>
      </trkpt>
      <trkpt lat="48.20446" lon="7.30615">
        <ele>570.6</ele>
        <time>2021-08-14T10:19:04.000Z</time>
      </trkpt>
      <trkpt lat="48.20451" lon="7.30626">
        <ele>572.9</ele>
        <time>2021-08-14T10:19:15.000Z</time>
      </trkpt>
      <trkpt lat="48.20457" lon="7.30616">
        <ele>576.7</ele>
        <time>2021-08-14T10:19:31.000Z</time>
      </trkpt>
      <trkpt lat="48.20467" lon="7.30613">
        <ele>581.8</ele>
        <time>2021-08-14T10:19:44.000Z</time>
      </trkpt>
      <trkpt lat="48.20464" lon="7.306">
        <ele>581</ele>
        <time>2021-08-14T10:19:55.000Z</time>
      </trkpt>
      <trkpt lat="48.20459" lon="7.30586">
        <ele>578.9</ele>
        <time>2021-08-14T10:20:05.000Z</time>
      </trkpt>
      <trkpt lat="48.20452" lon="7.30577">
        <ele>575.3</ele>
        <time>2021-08-14T10:20:12.000Z</time>
      </trkpt>
      <trkpt lat="48.20445" lon="7.30567">
        <ele>571.7</ele>
        <time>2021-08-14T10:20:23.000Z</time>
      </trkpt>
      <trkpt lat="48.20445" lon="7.30552">
        <ele>572.3</ele>
        <time>2021-08-14T10:20:35.000Z</time>
      </trkpt>
      <trkpt lat="48.2045" lon="7.3054">
        <ele>575.5</ele>
        <time>2021-08-14T10:20:50.000Z</time>
      </trkpt>
      <trkpt lat="48.20456" lon="7.3053">
        <ele>579.1</ele>
        <time>2021-08-14T10:21:01.000Z</time>
      </trkpt>
      <trkpt lat="48.20453" lon="7.30543">
        <ele>576.8</ele>
        <time>2021-08-14T10:21:20.000Z</time>
      </trkpt>
      <trkpt lat="48.20457" lon="7.30557">
        <ele>578.8</ele>
        <time>2021-08-14T10:21:31.000Z</time>
      </trkpt>
      <trkpt lat="48.20461" lon="7.3057">
        <ele>580.9</ele>
        <time>2021-08-14T10:21:42.000Z</time>
      </trkpt>
      <trkpt lat="48.2047" lon="7.30575">
        <ele>585.6</ele>
        <time>2021-08-14T10:21:54.000Z</time>
      </trkpt>
      <trkpt lat="48.20477" lon="7.30584">
        <ele>589.8</ele>
        <time>2021-08-14T10:22:22.000Z</time>
      </trkpt>
      <trkpt lat="48.20485" lon="7.30591">
        <ele>593.7</ele>
        <time>2021-08-14T10:22:34.000Z</time>
      </trkpt>
      <trkpt lat="48.20493" lon="7.30598">
        <ele>597.5</ele>
        <time>2021-08-14T10:22:45.000Z</time>
      </trkpt>
      <trkpt lat="48.20498" lon="7.30609">
        <ele>599.1</ele>
        <time>2021-08-14T10:22:58.000Z</time>
      </trkpt>
      <trkpt lat="48.20506" lon="7.30603">
        <ele>602.9</ele>
        <time>2021-08-14T10:23:22.000Z</time>
      </trkpt>
      <trkpt lat="48.20503" lon="7.3059">
        <ele>603.3</ele>
        <time>2021-08-14T10:23:44.000Z</time>
      </trkpt>
      <trkpt lat="48.20495" lon="7.30582">
        <ele>600.2</ele>
        <time>2021-08-14T10:24:00.000Z</time>
      </trkpt>
      <trkpt lat="48.20493" lon="7.30569">
        <ele>598.7</ele>
        <time>2021-08-14T10:24:14.000Z</time>
      </trkpt>
      <trkpt lat="48.20501" lon="7.30576">
        <ele>603.2</ele>
        <time>2021-08-14T10:24:30.000Z</time>
      </trkpt>
      <trkpt lat="48.20507" lon="7.30586">
        <ele>605.4</ele>
        <time>2021-08-14T10:24:43.000Z</time>
      </trkpt>
      <trkpt lat="48.20515" lon="7.30594">
        <ele>607.1</ele>
        <time>2021-08-14T10:24:55.000Z</time>
      </trkpt>
      <trkpt lat="48.20522" lon="7.30604">
        <ele>607.9</ele>
        <time>2021-08-14T10:25:09.000Z</time>
      </trkpt>
      <trkpt lat="48.2052" lon="7.30618">
        <ele>604.9</ele>
        <time>2021-08-14T10:25:22.000Z</time>
      </trkpt>
      <trkpt lat="48.20528" lon="7.30626">
        <ele>605.4</ele>
        <time>2021-08-14T10:25:29.000Z</time>
      </trkpt>
      <trkpt lat="48.20536" lon="7.30631">
        <ele>606.5</ele>
        <time>2021-08-14T10:25:38.000Z</time>
      </trkpt>
      <trkpt lat="48.20545" lon="7.30634">
        <ele>607.9</ele>
        <time>2021-08-14T10:25:48.000Z</time>
      </trkpt>
      <trkpt lat="48.20546" lon="7.30621">
        <ele>611.4</ele>
        <time>2021-08-14T10:26:06.000Z</time>
      </trkpt>
      <trkpt lat="48.20539" lon="7.30611">
        <ele>611.8</ele>
        <time>2021-08-14T10:26:17.000Z</time>
      </trkpt>
      <trkpt lat="48.20539" lon="7.30597">
        <ele>614.7</ele>
        <time>2021-08-14T10:26:31.000Z</time>
      </trkpt>
      <trkpt lat="48.20538" lon="7.30583">
        <ele>617.6</ele>
        <time>2021-08-14T10:26:43.000Z</time>
      </trkpt>
      <trkpt lat="48.20539" lon="7.30569">
        <ele>617.2</ele>
        <time>2021-08-14T10:26:57.000Z</time>
      </trkpt>
      <trkpt lat="48.20549" lon="7.30567">
        <ele>620.5</ele>
        <time>2021-08-14T10:27:08.000Z</time>
      </trkpt>
      <trkpt lat="48.20558" lon="7.30565">
        <ele>623.6</ele>
        <time>2021-08-14T10:27:24.000Z</time>
      </trkpt>
      <trkpt lat="48.20567" lon="7.30569">
        <ele>627.3</ele>
        <time>2021-08-14T10:27:48.000Z</time>
      </trkpt>
      <trkpt lat="48.20576" lon="7.30563">
        <ele>630</ele>
        <time>2021-08-14T10:27:59.000Z</time>
      </trkpt>
      <trkpt lat="48.20586" lon="7.30558">
        <ele>632</ele>
        <time>2021-08-14T10:28:08.000Z</time>
      </trkpt>
      <trkpt lat="48.20594" lon="7.30551">
        <ele>631.2</ele>
        <time>2021-08-14T10:29:47.000Z</time>
      </trkpt>
      <trkpt lat="48.20592" lon="7.30536">
        <ele>629.4</ele>
        <time>2021-08-14T10:29:52.000Z</time>
      </trkpt>
      <trkpt lat="48.20597" lon="7.30526">
        <ele>628.2</ele>
        <time>2021-08-14T10:30:06.000Z</time>
      </trkpt>
      <trkpt lat="48.20607" lon="7.30522">
        <ele>627.8</ele>
        <time>2021-08-14T10:30:16.000Z</time>
      </trkpt>
      <trkpt lat="48.20616" lon="7.30516">
        <ele>627.3</ele>
        <time>2021-08-14T10:30:23.000Z</time>
      </trkpt>
      <trkpt lat="48.20624" lon="7.30511">
        <ele>626.7</ele>
        <time>2021-08-14T10:30:31.000Z</time>
      </trkpt>
      <trkpt lat="48.20632" lon="7.30501">
        <ele>625.7</ele>
        <time>2021-08-14T10:31:17.000Z</time>
      </trkpt>
      <trkpt lat="48.20642" lon="7.305">
        <ele>625.6</ele>
        <time>2021-08-14T10:32:17.000Z</time>
      </trkpt>
      <trkpt lat="48.20632" lon="7.30499">
        <ele>625.2</ele>
        <time>2021-08-14T10:32:27.000Z</time>
      </trkpt>
      <trkpt lat="48.20623" lon="7.30498">
        <ele>624.7</ele>
        <time>2021-08-14T10:32:36.000Z</time>
      </trkpt>
      <trkpt lat="48.20618" lon="7.30487">
        <ele>621</ele>
        <time>2021-08-14T10:32:57.000Z</time>
      </trkpt>
      <trkpt lat="48.20627" lon="7.30489">
        <ele>621.9</ele>
        <time>2021-08-14T10:33:36.000Z</time>
      </trkpt>
      <trkpt lat="48.20637" lon="7.30481">
        <ele>619.6</ele>
        <time>2021-08-14T10:33:43.000Z</time>
      </trkpt>
      <trkpt lat="48.20646" lon="7.30475">
        <ele>618</ele>
        <time>2021-08-14T10:33:51.000Z</time>
      </trkpt>
      <trkpt lat="48.20656" lon="7.30474">
        <ele>617.9</ele>
        <time>2021-08-14T10:33:58.000Z</time>
      </trkpt>
      <trkpt lat="48.20666" lon="7.30472">
        <ele>617.6</ele>
        <time>2021-08-14T10:34:05.000Z</time>
      </trkpt>
      <trkpt lat="48.20677" lon="7.30472">
        <ele>616.7</ele>
        <time>2021-08-14T10:34:14.000Z</time>
      </trkpt>
      <trkpt lat="48.20685" lon="7.30462">
        <ele>613.3</ele>
        <time>2021-08-14T10:34:22.000Z</time>
      </trkpt>
      <trkpt lat="48.20694" lon="7.30461">
        <ele>612.5</ele>
        <time>2021-08-14T10:34:31.000Z</time>
      </trkpt>
      <trkpt lat="48.20704" lon="7.30461">
        <ele>611.8</ele>
        <time>2021-08-14T10:34:40.000Z</time>
      </trkpt>
      <trkpt lat="48.20713" lon="7.3046">
        <ele>611</ele>
        <time>2021-08-14T10:34:48.000Z</time>
      </trkpt>
      <trkpt lat="48.20723" lon="7.30461">
        <ele>610.5</ele>
        <time>2021-08-14T10:34:56.000Z</time>
      </trkpt>
      <trkpt lat="48.20732" lon="7.30454">
        <ele>609.1</ele>
        <time>2021-08-14T10:35:04.000Z</time>
      </trkpt>
      <trkpt lat="48.2074" lon="7.30446">
        <ele>608</ele>
        <time>2021-08-14T10:35:11.000Z</time>
      </trkpt>
      <trkpt lat="48.20746" lon="7.30435">
        <ele>607</ele>
        <time>2021-08-14T10:35:18.000Z</time>
      </trkpt>
      <trkpt lat="48.20753" lon="7.30426">
        <ele>606.3</ele>
        <time>2021-08-14T10:35:24.000Z</time>
      </trkpt>
      <trkpt lat="48.20758" lon="7.30415">
        <ele>605.4</ele>
        <time>2021-08-14T10:35:31.000Z</time>
      </trkpt>
      <trkpt lat="48.20762" lon="7.30401">
        <ele>604.5</ele>
        <time>2021-08-14T10:35:38.000Z</time>
      </trkpt>
      <trkpt lat="48.20769" lon="7.30392">
        <ele>604</ele>
        <time>2021-08-14T10:35:45.000Z</time>
      </trkpt>
      <trkpt lat="48.20772" lon="7.30377">
        <ele>603.5</ele>
        <time>2021-08-14T10:35:52.000Z</time>
      </trkpt>
      <trkpt lat="48.20774" lon="7.30363">
        <ele>603.1</ele>
        <time>2021-08-14T10:36:00.000Z</time>
      </trkpt>
      <trkpt lat="48.20778" lon="7.3035">
        <ele>603</ele>
        <time>2021-08-14T10:36:10.000Z</time>
      </trkpt>
      <trkpt lat="48.2078" lon="7.30337">
        <ele>602.9</ele>
        <time>2021-08-14T10:36:19.000Z</time>
      </trkpt>
      <trkpt lat="48.20783" lon="7.30323">
        <ele>603.1</ele>
        <time>2021-08-14T10:36:28.000Z</time>
      </trkpt>
      <trkpt lat="48.20788" lon="7.30311">
        <ele>603.5</ele>
        <time>2021-08-14T10:36:35.000Z</time>
      </trkpt>
      <trkpt lat="48.20794" lon="7.30301">
        <ele>604.3</ele>
        <time>2021-08-14T10:36:43.000Z</time>
      </trkpt>
      <trkpt lat="48.20801" lon="7.3029">
        <ele>605.4</ele>
        <time>2021-08-14T10:36:50.000Z</time>
      </trkpt>
      <trkpt lat="48.20807" lon="7.30279">
        <ele>606.4</ele>
        <time>2021-08-14T10:37:00.000Z</time>
      </trkpt>
      <trkpt lat="48.20813" lon="7.30268">
        <ele>607.7</ele>
        <time>2021-08-14T10:37:08.000Z</time>
      </trkpt>
      <trkpt lat="48.20822" lon="7.30261">
        <ele>609.4</ele>
        <time>2021-08-14T10:37:16.000Z</time>
      </trkpt>
      <trkpt lat="48.2083" lon="7.30252">
        <ele>611.2</ele>
        <time>2021-08-14T10:37:25.000Z</time>
      </trkpt>
      <trkpt lat="48.20839" lon="7.30247">
        <ele>612.6</ele>
        <time>2021-08-14T10:37:33.000Z</time>
      </trkpt>
      <trkpt lat="48.20847" lon="7.30238">
        <ele>614</ele>
        <time>2021-08-14T10:37:40.000Z</time>
      </trkpt>
      <trkpt lat="48.20854" lon="7.30229">
        <ele>615.4</ele>
        <time>2021-08-14T10:37:49.000Z</time>
      </trkpt>
      <trkpt lat="48.20862" lon="7.30222">
        <ele>616.8</ele>
        <time>2021-08-14T10:37:55.000Z</time>
      </trkpt>
      <trkpt lat="48.20871" lon="7.3022">
        <ele>617.6</ele>
        <time>2021-08-14T10:38:03.000Z</time>
      </trkpt>
      <trkpt lat="48.2088" lon="7.30218">
        <ele>618.4</ele>
        <time>2021-08-14T10:38:13.000Z</time>
      </trkpt>
      <trkpt lat="48.20888" lon="7.30209">
        <ele>620</ele>
        <time>2021-08-14T10:38:22.000Z</time>
      </trkpt>
      <trkpt lat="48.20896" lon="7.30203">
        <ele>621.4</ele>
        <time>2021-08-14T10:38:30.000Z</time>
      </trkpt>
      <trkpt lat="48.20904" lon="7.30194">
        <ele>623.2</ele>
        <time>2021-08-14T10:38:38.000Z</time>
      </trkpt>
      <trkpt lat="48.20911" lon="7.30183">
        <ele>625.1</ele>
        <time>2021-08-14T10:38:45.000Z</time>
      </trkpt>
      <trkpt lat="48.20915" lon="7.3017">
        <ele>627.4</ele>
        <time>2021-08-14T10:38:53.000Z</time>
      </trkpt>
      <trkpt lat="48.20923" lon="7.3016">
        <ele>628.4</ele>
        <time>2021-08-14T10:39:01.000Z</time>
      </trkpt>
      <trkpt lat="48.20931" lon="7.30152">
        <ele>629</ele>
        <time>2021-08-14T10:39:11.000Z</time>
      </trkpt>
      <trkpt lat="48.20939" lon="7.30143">
        <ele>629.6</ele>
        <time>2021-08-14T10:39:18.000Z</time>
      </trkpt>
      <trkpt lat="48.20947" lon="7.30136">
        <ele>630.1</ele>
        <time>2021-08-14T10:39:26.000Z</time>
      </trkpt>
      <trkpt lat="48.20955" lon="7.3013">
        <ele>630.6</ele>
        <time>2021-08-14T10:39:34.000Z</time>
      </trkpt>
      <trkpt lat="48.20961" lon="7.30121">
        <ele>631.4</ele>
        <time>2021-08-14T10:39:42.000Z</time>
      </trkpt>
      <trkpt lat="48.20969" lon="7.30111">
        <ele>632.2</ele>
        <time>2021-08-14T10:39:50.000Z</time>
      </trkpt>
      <trkpt lat="48.20976" lon="7.30102">
        <ele>633</ele>
        <time>2021-08-14T10:39:59.000Z</time>
      </trkpt>
      <trkpt lat="48.20985" lon="7.30094">
        <ele>633.8</ele>
        <time>2021-08-14T10:40:09.000Z</time>
      </trkpt>
      <trkpt lat="48.20993" lon="7.30085">
        <ele>634.7</ele>
        <time>2021-08-14T10:40:19.000Z</time>
      </trkpt>
      <trkpt lat="48.21001" lon="7.30077">
        <ele>635.2</ele>
        <time>2021-08-14T10:40:27.000Z</time>
      </trkpt>
      <trkpt lat="48.21008" lon="7.30068">
        <ele>636.3</ele>
        <time>2021-08-14T10:40:34.000Z</time>
      </trkpt>
      <trkpt lat="48.21016" lon="7.30062">
        <ele>637.3</ele>
        <time>2021-08-14T10:40:43.000Z</time>
      </trkpt>
      <trkpt lat="48.21022" lon="7.30052">
        <ele>637.9</ele>
        <time>2021-08-14T10:40:51.000Z</time>
      </trkpt>
      <trkpt lat="48.2103" lon="7.30044">
        <ele>638.5</ele>
        <time>2021-08-14T10:40:59.000Z</time>
      </trkpt>
      <trkpt lat="48.21038" lon="7.30036">
        <ele>639</ele>
        <time>2021-08-14T10:41:09.000Z</time>
      </trkpt>
      <trkpt lat="48.21047" lon="7.30032">
        <ele>639.5</ele>
        <time>2021-08-14T10:41:18.000Z</time>
      </trkpt>
      <trkpt lat="48.21055" lon="7.30023">
        <ele>639.6</ele>
        <time>2021-08-14T10:41:38.000Z</time>
      </trkpt>
      <trkpt lat="48.21064" lon="7.30019">
        <ele>639.8</ele>
        <time>2021-08-14T10:41:47.000Z</time>
      </trkpt>
      <trkpt lat="48.21073" lon="7.30013">
        <ele>639.8</ele>
        <time>2021-08-14T10:41:56.000Z</time>
      </trkpt>
      <trkpt lat="48.21082" lon="7.30007">
        <ele>639.6</ele>
        <time>2021-08-14T10:42:03.000Z</time>
      </trkpt>
      <trkpt lat="48.21092" lon="7.30004">
        <ele>640.1</ele>
        <time>2021-08-14T10:42:13.000Z</time>
      </trkpt>
      <trkpt lat="48.21101" lon="7.3">
        <ele>640.4</ele>
        <time>2021-08-14T10:42:20.000Z</time>
      </trkpt>
      <trkpt lat="48.21111" lon="7.29998">
        <ele>640.8</ele>
        <time>2021-08-14T10:42:27.000Z</time>
      </trkpt>
      <trkpt lat="48.21121" lon="7.29997">
        <ele>641.4</ele>
        <time>2021-08-14T10:42:34.000Z</time>
      </trkpt>
      <trkpt lat="48.2113" lon="7.29996">
        <ele>641.7</ele>
        <time>2021-08-14T10:42:43.000Z</time>
      </trkpt>
      <trkpt lat="48.2114" lon="7.29997">
        <ele>642.8</ele>
        <time>2021-08-14T10:42:50.000Z</time>
      </trkpt>
      <trkpt lat="48.21149" lon="7.29996">
        <ele>643.4</ele>
        <time>2021-08-14T10:42:57.000Z</time>
      </trkpt>
      <trkpt lat="48.21159" lon="7.29994">
        <ele>643.8</ele>
        <time>2021-08-14T10:43:06.000Z</time>
      </trkpt>
      <trkpt lat="48.21169" lon="7.2999">
        <ele>643.4</ele>
        <time>2021-08-14T10:43:13.000Z</time>
      </trkpt>
      <trkpt lat="48.21179" lon="7.29989">
        <ele>643.4</ele>
        <time>2021-08-14T10:43:19.000Z</time>
      </trkpt>
      <trkpt lat="48.21189" lon="7.29984">
        <ele>642.7</ele>
        <time>2021-08-14T10:43:26.000Z</time>
      </trkpt>
      <trkpt lat="48.21198" lon="7.29981">
        <ele>642.3</ele>
        <time>2021-08-14T10:43:32.000Z</time>
      </trkpt>
      <trkpt lat="48.21207" lon="7.29976">
        <ele>641.4</ele>
        <time>2021-08-14T10:43:39.000Z</time>
      </trkpt>
      <trkpt lat="48.21216" lon="7.2997">
        <ele>640.4</ele>
        <time>2021-08-14T10:43:48.000Z</time>
      </trkpt>
      <trkpt lat="48.21225" lon="7.29964">
        <ele>639.4</ele>
        <time>2021-08-14T10:43:57.000Z</time>
      </trkpt>
      <trkpt lat="48.21233" lon="7.29959">
        <ele>638.5</ele>
        <time>2021-08-14T10:44:04.000Z</time>
      </trkpt>
      <trkpt lat="48.21242" lon="7.29954">
        <ele>638.1</ele>
        <time>2021-08-14T10:44:11.000Z</time>
      </trkpt>
      <trkpt lat="48.21251" lon="7.2995">
        <ele>637.4</ele>
        <time>2021-08-14T10:44:18.000Z</time>
      </trkpt>
      <trkpt lat="48.2126" lon="7.29946">
        <ele>635.2</ele>
        <time>2021-08-14T10:44:26.000Z</time>
      </trkpt>
      <trkpt lat="48.21268" lon="7.2994">
        <ele>633.1</ele>
        <time>2021-08-14T10:44:33.000Z</time>
      </trkpt>
      <trkpt lat="48.21277" lon="7.29938">
        <ele>631.7</ele>
        <time>2021-08-14T10:44:41.000Z</time>
      </trkpt>
      <trkpt lat="48.21287" lon="7.29938">
        <ele>630.6</ele>
        <time>2021-08-14T10:44:50.000Z</time>
      </trkpt>
      <trkpt lat="48.21297" lon="7.29938">
        <ele>629.4</ele>
        <time>2021-08-14T10:44:59.000Z</time>
      </trkpt>
      <trkpt lat="48.21306" lon="7.2994">
        <ele>628.6</ele>
        <time>2021-08-14T10:45:06.000Z</time>
      </trkpt>
      <trkpt lat="48.21315" lon="7.29942">
        <ele>627.6</ele>
        <time>2021-08-14T10:45:15.000Z</time>
      </trkpt>
      <trkpt lat="48.21325" lon="7.29942">
        <ele>626.4</ele>
        <time>2021-08-14T10:45:25.000Z</time>
      </trkpt>
      <trkpt lat="48.21333" lon="7.29952">
        <ele>625.5</ele>
        <time>2021-08-14T10:45:32.000Z</time>
      </trkpt>
      <trkpt lat="48.21342" lon="7.29954">
        <ele>624.2</ele>
        <time>2021-08-14T10:45:39.000Z</time>
      </trkpt>
      <trkpt lat="48.21351" lon="7.29952">
        <ele>622.9</ele>
        <time>2021-08-14T10:45:47.000Z</time>
      </trkpt>
      <trkpt lat="48.21358" lon="7.29942">
        <ele>622.4</ele>
        <time>2021-08-14T10:45:54.000Z</time>
      </trkpt>
      <trkpt lat="48.21365" lon="7.29934">
        <ele>622.1</ele>
        <time>2021-08-14T10:46:05.000Z</time>
      </trkpt>
      <trkpt lat="48.21366" lon="7.2992">
        <ele>622.9</ele>
        <time>2021-08-14T10:46:19.000Z</time>
      </trkpt>
      <trkpt lat="48.21371" lon="7.29907">
        <ele>622.9</ele>
        <time>2021-08-14T10:46:52.000Z</time>
      </trkpt>
      <trkpt lat="48.21376" lon="7.29895">
        <ele>623</ele>
        <time>2021-08-14T10:47:01.000Z</time>
      </trkpt>
      <trkpt lat="48.2138" lon="7.29883">
        <ele>623.3</ele>
        <time>2021-08-14T10:47:09.000Z</time>
      </trkpt>
      <trkpt lat="48.21382" lon="7.2987">
        <ele>623.9</ele>
        <time>2021-08-14T10:47:19.000Z</time>
      </trkpt>
      <trkpt lat="48.21388" lon="7.2986">
        <ele>624.6</ele>
        <time>2021-08-14T10:47:30.000Z</time>
      </trkpt>
      <trkpt lat="48.21393" lon="7.29848">
        <ele>625.6</ele>
        <time>2021-08-14T10:47:39.000Z</time>
      </trkpt>
      <trkpt lat="48.21399" lon="7.29836">
        <ele>626.9</ele>
        <time>2021-08-14T10:47:46.000Z</time>
      </trkpt>
      <trkpt lat="48.21403" lon="7.29823">
        <ele>628.1</ele>
        <time>2021-08-14T10:47:53.000Z</time>
      </trkpt>
      <trkpt lat="48.21408" lon="7.29812">
        <ele>629.6</ele>
        <time>2021-08-14T10:48:00.000Z</time>
      </trkpt>
      <trkpt lat="48.21414" lon="7.29801">
        <ele>631.3</ele>
        <time>2021-08-14T10:48:08.000Z</time>
      </trkpt>
      <trkpt lat="48.21418" lon="7.29789">
        <ele>632.9</ele>
        <time>2021-08-14T10:48:17.000Z</time>
      </trkpt>
      <trkpt lat="48.21422" lon="7.29775">
        <ele>634.6</ele>
        <time>2021-08-14T10:48:25.000Z</time>
      </trkpt>
      <trkpt lat="48.21429" lon="7.29763">
        <ele>636.6</ele>
        <time>2021-08-14T10:48:52.000Z</time>
      </trkpt>
      <trkpt lat="48.21434" lon="7.29751">
        <ele>638.3</ele>
        <time>2021-08-14T10:49:03.000Z</time>
      </trkpt>
      <trkpt lat="48.21437" lon="7.29737">
        <ele>638.8</ele>
        <time>2021-08-14T10:49:11.000Z</time>
      </trkpt>
      <trkpt lat="48.21439" lon="7.29723">
        <ele>639</ele>
        <time>2021-08-14T10:49:19.000Z</time>
      </trkpt>
      <trkpt lat="48.21444" lon="7.2971">
        <ele>639.9</ele>
        <time>2021-08-14T10:49:29.000Z</time>
      </trkpt>
      <trkpt lat="48.21449" lon="7.29697">
        <ele>640.8</ele>
        <time>2021-08-14T10:49:37.000Z</time>
      </trkpt>
      <trkpt lat="48.21454" lon="7.29684">
        <ele>641.8</ele>
        <time>2021-08-14T10:49:45.000Z</time>
      </trkpt>
      <trkpt lat="48.21458" lon="7.29671">
        <ele>642.9</ele>
        <time>2021-08-14T10:49:53.000Z</time>
      </trkpt>
      <trkpt lat="48.21463" lon="7.29659">
        <ele>643.2</ele>
        <time>2021-08-14T10:50:02.000Z</time>
      </trkpt>
      <trkpt lat="48.21467" lon="7.29645">
        <ele>642.9</ele>
        <time>2021-08-14T10:50:11.000Z</time>
      </trkpt>
      <trkpt lat="48.21471" lon="7.29632">
        <ele>642.6</ele>
        <time>2021-08-14T10:50:20.000Z</time>
      </trkpt>
      <trkpt lat="48.21474" lon="7.29619">
        <ele>642.3</ele>
        <time>2021-08-14T10:50:29.000Z</time>
      </trkpt>
      <trkpt lat="48.2148" lon="7.29608">
        <ele>642.7</ele>
        <time>2021-08-14T10:50:37.000Z</time>
      </trkpt>
      <trkpt lat="48.21485" lon="7.29597">
        <ele>643.2</ele>
        <time>2021-08-14T10:50:45.000Z</time>
      </trkpt>
      <trkpt lat="48.21493" lon="7.29589">
        <ele>644.7</ele>
        <time>2021-08-14T10:50:54.000Z</time>
      </trkpt>
      <trkpt lat="48.21503" lon="7.2959">
        <ele>646.9</ele>
        <time>2021-08-14T10:51:10.000Z</time>
      </trkpt>
      <trkpt lat="48.21512" lon="7.29589">
        <ele>648.5</ele>
        <time>2021-08-14T10:51:20.000Z</time>
      </trkpt>
      <trkpt lat="48.21521" lon="7.29587">
        <ele>649.9</ele>
        <time>2021-08-14T10:51:31.000Z</time>
      </trkpt>
      <trkpt lat="48.21531" lon="7.29585">
        <ele>651.5</ele>
        <time>2021-08-14T10:51:40.000Z</time>
      </trkpt>
      <trkpt lat="48.2154" lon="7.29586">
        <ele>653.1</ele>
        <time>2021-08-14T10:51:47.000Z</time>
      </trkpt>
      <trkpt lat="48.21548" lon="7.29579">
        <ele>654.8</ele>
        <time>2021-08-14T10:51:59.000Z</time>
      </trkpt>
      <trkpt lat="48.21556" lon="7.29569">
        <ele>656.6</ele>
        <time>2021-08-14T10:52:12.000Z</time>
      </trkpt>
      <trkpt lat="48.2156" lon="7.29557">
        <ele>658</ele>
        <time>2021-08-14T10:52:21.000Z</time>
      </trkpt>
      <trkpt lat="48.21559" lon="7.29543">
        <ele>658.3</ele>
        <time>2021-08-14T10:52:29.000Z</time>
      </trkpt>
      <trkpt lat="48.21558" lon="7.29529">
        <ele>658.6</ele>
        <time>2021-08-14T10:52:40.000Z</time>
      </trkpt>
      <trkpt lat="48.21558" lon="7.29514">
        <ele>659.3</ele>
        <time>2021-08-14T10:52:50.000Z</time>
      </trkpt>
      <trkpt lat="48.2156" lon="7.29499">
        <ele>660.3</ele>
        <time>2021-08-14T10:53:02.000Z</time>
      </trkpt>
      <trkpt lat="48.21558" lon="7.29483">
        <ele>660.4</ele>
        <time>2021-08-14T10:53:10.000Z</time>
      </trkpt>
      <trkpt lat="48.21559" lon="7.29469">
        <ele>661.3</ele>
        <time>2021-08-14T10:53:20.000Z</time>
      </trkpt>
      <trkpt lat="48.21557" lon="7.29456">
        <ele>661</ele>
        <time>2021-08-14T10:53:40.000Z</time>
      </trkpt>
      <trkpt lat="48.21565" lon="7.29447">
        <ele>664.2</ele>
        <time>2021-08-14T10:53:48.000Z</time>
      </trkpt>
      <trkpt lat="48.21569" lon="7.29436">
        <ele>666.4</ele>
        <time>2021-08-14T10:53:58.000Z</time>
      </trkpt>
      <trkpt lat="48.21572" lon="7.29422">
        <ele>668.2</ele>
        <time>2021-08-14T10:54:09.000Z</time>
      </trkpt>
      <trkpt lat="48.21576" lon="7.2941">
        <ele>670.6</ele>
        <time>2021-08-14T10:54:19.000Z</time>
      </trkpt>
      <trkpt lat="48.2158" lon="7.29396">
        <ele>672.7</ele>
        <time>2021-08-14T10:54:29.000Z</time>
      </trkpt>
      <trkpt lat="48.21584" lon="7.29383">
        <ele>675.1</ele>
        <time>2021-08-14T10:54:37.000Z</time>
      </trkpt>
      <trkpt lat="48.21586" lon="7.29369">
        <ele>676.6</ele>
        <time>2021-08-14T10:54:46.000Z</time>
      </trkpt>
      <trkpt lat="48.21587" lon="7.29355">
        <ele>677.6</ele>
        <time>2021-08-14T10:54:57.000Z</time>
      </trkpt>
      <trkpt lat="48.21591" lon="7.29342">
        <ele>680</ele>
        <time>2021-08-14T10:55:09.000Z</time>
      </trkpt>
      <trkpt lat="48.21597" lon="7.29331">
        <ele>683.2</ele>
        <time>2021-08-14T10:55:18.000Z</time>
      </trkpt>
      <trkpt lat="48.21601" lon="7.29317">
        <ele>686.2</ele>
        <time>2021-08-14T10:55:28.000Z</time>
      </trkpt>
      <trkpt lat="48.21605" lon="7.29304">
        <ele>689.2</ele>
        <time>2021-08-14T10:55:37.000Z</time>
      </trkpt>
      <trkpt lat="48.21609" lon="7.29292">
        <ele>692</ele>
        <time>2021-08-14T10:55:45.000Z</time>
      </trkpt>
      <trkpt lat="48.21606" lon="7.29279">
        <ele>691.8</ele>
        <time>2021-08-14T10:55:55.000Z</time>
      </trkpt>
      <trkpt lat="48.21602" lon="7.29263">
        <ele>691.7</ele>
        <time>2021-08-14T10:56:04.000Z</time>
      </trkpt>
      <trkpt lat="48.21597" lon="7.29251">
        <ele>690.3</ele>
        <time>2021-08-14T10:56:10.000Z</time>
      </trkpt>
      <trkpt lat="48.21593" lon="7.29239">
        <ele>690.7</ele>
        <time>2021-08-14T10:56:19.000Z</time>
      </trkpt>
      <trkpt lat="48.21584" lon="7.29234">
        <ele>687.9</ele>
        <time>2021-08-14T10:56:28.000Z</time>
      </trkpt>
      <trkpt lat="48.2158" lon="7.29221">
        <ele>689.8</ele>
        <time>2021-08-14T10:56:38.000Z</time>
      </trkpt>
      <trkpt lat="48.21576" lon="7.29209">
        <ele>691.6</ele>
        <time>2021-08-14T10:56:47.000Z</time>
      </trkpt>
      <trkpt lat="48.21571" lon="7.29196">
        <ele>693.3</ele>
        <time>2021-08-14T10:56:57.000Z</time>
      </trkpt>
      <trkpt lat="48.21565" lon="7.29185">
        <ele>694.8</ele>
        <time>2021-08-14T10:57:07.000Z</time>
      </trkpt>
      <trkpt lat="48.21563" lon="7.29171">
        <ele>697.4</ele>
        <time>2021-08-14T10:57:17.000Z</time>
      </trkpt>
      <trkpt lat="48.21559" lon="7.29158">
        <ele>699.4</ele>
        <time>2021-08-14T10:57:28.000Z</time>
      </trkpt>
      <trkpt lat="48.21554" lon="7.29145">
        <ele>700.6</ele>
        <time>2021-08-14T10:57:37.000Z</time>
      </trkpt>
      <trkpt lat="48.2155" lon="7.29132">
        <ele>702.4</ele>
        <time>2021-08-14T10:57:46.000Z</time>
      </trkpt>
      <trkpt lat="48.21545" lon="7.29119">
        <ele>704.1</ele>
        <time>2021-08-14T10:57:57.000Z</time>
      </trkpt>
      <trkpt lat="48.2154" lon="7.29107">
        <ele>705.6</ele>
        <time>2021-08-14T10:58:05.000Z</time>
      </trkpt>
      <trkpt lat="48.21537" lon="7.29095">
        <ele>707.6</ele>
        <time>2021-08-14T10:58:12.000Z</time>
      </trkpt>
      <trkpt lat="48.21531" lon="7.29084">
        <ele>709.3</ele>
        <time>2021-08-14T10:58:19.000Z</time>
      </trkpt>
      <trkpt lat="48.21524" lon="7.29074">
        <ele>709.6</ele>
        <time>2021-08-14T10:58:27.000Z</time>
      </trkpt>
      <trkpt lat="48.21518" lon="7.29064">
        <ele>710</ele>
        <time>2021-08-14T10:58:36.000Z</time>
      </trkpt>
      <trkpt lat="48.21515" lon="7.2905">
        <ele>711.2</ele>
        <time>2021-08-14T10:58:44.000Z</time>
      </trkpt>
      <trkpt lat="48.21511" lon="7.29038">
        <ele>712</ele>
        <time>2021-08-14T10:58:53.000Z</time>
      </trkpt>
      <trkpt lat="48.21504" lon="7.29027">
        <ele>712.4</ele>
        <time>2021-08-14T10:59:02.000Z</time>
      </trkpt>
      <trkpt lat="48.21501" lon="7.29014">
        <ele>713.6</ele>
        <time>2021-08-14T10:59:13.000Z</time>
      </trkpt>
      <trkpt lat="48.21498" lon="7.29">
        <ele>715.2</ele>
        <time>2021-08-14T10:59:24.000Z</time>
      </trkpt>
      <trkpt lat="48.21497" lon="7.28985">
        <ele>714.7</ele>
        <time>2021-08-14T10:59:32.000Z</time>
      </trkpt>
      <trkpt lat="48.21495" lon="7.2897">
        <ele>714.3</ele>
        <time>2021-08-14T10:59:44.000Z</time>
      </trkpt>
      <trkpt lat="48.21493" lon="7.28955">
        <ele>713.9</ele>
        <time>2021-08-14T10:59:55.000Z</time>
      </trkpt>
      <trkpt lat="48.21492" lon="7.28941">
        <ele>713.4</ele>
        <time>2021-08-14T11:00:15.000Z</time>
      </trkpt>
      <trkpt lat="48.21485" lon="7.2895">
        <ele>714.3</ele>
        <time>2021-08-14T11:01:06.000Z</time>
      </trkpt>
      <trkpt lat="48.21493" lon="7.28963">
        <ele>714.2</ele>
        <time>2021-08-14T11:02:52.000Z</time>
      </trkpt>
      <trkpt lat="48.21502" lon="7.2896">
        <ele>713.8</ele>
        <time>2021-08-14T11:03:03.000Z</time>
      </trkpt>
      <trkpt lat="48.21507" lon="7.28949">
        <ele>714</ele>
        <time>2021-08-14T11:03:09.000Z</time>
      </trkpt>
      <trkpt lat="48.21514" lon="7.28938">
        <ele>714.6</ele>
        <time>2021-08-14T11:03:17.000Z</time>
      </trkpt>
      <trkpt lat="48.21522" lon="7.28932">
        <ele>715.5</ele>
        <time>2021-08-14T11:03:26.000Z</time>
      </trkpt>
      <trkpt lat="48.21531" lon="7.28927">
        <ele>716.6</ele>
        <time>2021-08-14T11:03:33.000Z</time>
      </trkpt>
      <trkpt lat="48.21539" lon="7.2892">
        <ele>717.7</ele>
        <time>2021-08-14T11:03:41.000Z</time>
      </trkpt>
      <trkpt lat="48.21549" lon="7.28917">
        <ele>719</ele>
        <time>2021-08-14T11:03:50.000Z</time>
      </trkpt>
      <trkpt lat="48.21558" lon="7.28915">
        <ele>720.3</ele>
        <time>2021-08-14T11:04:09.000Z</time>
      </trkpt>
      <trkpt lat="48.21567" lon="7.28915">
        <ele>721.6</ele>
        <time>2021-08-14T11:04:56.000Z</time>
      </trkpt>
      <trkpt lat="48.21572" lon="7.28928">
        <ele>722.3</ele>
        <time>2021-08-14T11:05:11.000Z</time>
      </trkpt>
      <trkpt lat="48.21578" lon="7.28939">
        <ele>723</ele>
        <time>2021-08-14T11:05:19.000Z</time>
      </trkpt>
      <trkpt lat="48.21584" lon="7.2895">
        <ele>723.9</ele>
        <time>2021-08-14T11:05:29.000Z</time>
      </trkpt>
      <trkpt lat="48.2159" lon="7.28961">
        <ele>725.4</ele>
        <time>2021-08-14T11:05:37.000Z</time>
      </trkpt>
      <trkpt lat="48.21599" lon="7.28969">
        <ele>727.8</ele>
        <time>2021-08-14T11:05:47.000Z</time>
      </trkpt>
      <trkpt lat="48.21607" lon="7.28976">
        <ele>730</ele>
        <time>2021-08-14T11:05:55.000Z</time>
      </trkpt>
      <trkpt lat="48.21615" lon="7.28984">
        <ele>732.3</ele>
        <time>2021-08-14T11:06:06.000Z</time>
      </trkpt>
      <trkpt lat="48.21622" lon="7.28992">
        <ele>734.3</ele>
        <time>2021-08-14T11:06:14.000Z</time>
      </trkpt>
      <trkpt lat="48.2163" lon="7.29">
        <ele>736.5</ele>
        <time>2021-08-14T11:06:23.000Z</time>
      </trkpt>
      <trkpt lat="48.21638" lon="7.29009">
        <ele>738.1</ele>
        <time>2021-08-14T11:06:33.000Z</time>
      </trkpt>
      <trkpt lat="48.21644" lon="7.2902">
        <ele>739.1</ele>
        <time>2021-08-14T11:06:40.000Z</time>
      </trkpt>
      <trkpt lat="48.21652" lon="7.29028">
        <ele>741</ele>
        <time>2021-08-14T11:06:49.000Z</time>
      </trkpt>
      <trkpt lat="48.21662" lon="7.29034">
        <ele>743.6</ele>
        <time>2021-08-14T11:07:18.000Z</time>
      </trkpt>
      <trkpt lat="48.21672" lon="7.29036">
        <ele>746.6</ele>
        <time>2021-08-14T11:07:37.000Z</time>
      </trkpt>
      <trkpt lat="48.21678" lon="7.29026">
        <ele>749.5</ele>
        <time>2021-08-14T11:07:47.000Z</time>
      </trkpt>
      <trkpt lat="48.21687" lon="7.2902">
        <ele>752.6</ele>
        <time>2021-08-14T11:08:03.000Z</time>
      </trkpt>
      <trkpt lat="48.21694" lon="7.29011">
        <ele>755.4</ele>
        <time>2021-08-14T11:08:18.000Z</time>
      </trkpt>
      <trkpt lat="48.21704" lon="7.29004">
        <ele>758.5</ele>
        <time>2021-08-14T11:08:34.000Z</time>
      </trkpt>
      <trkpt lat="48.21712" lon="7.28997">
        <ele>761.1</ele>
        <time>2021-08-14T11:08:48.000Z</time>
      </trkpt>
      <trkpt lat="48.21719" lon="7.28988">
        <ele>762.8</ele>
        <time>2021-08-14T11:09:00.000Z</time>
      </trkpt>
      <trkpt lat="48.21727" lon="7.28996">
        <ele>765.6</ele>
        <time>2021-08-14T11:09:15.000Z</time>
      </trkpt>
      <trkpt lat="48.21726" lon="7.2901">
        <ele>765.7</ele>
        <time>2021-08-14T11:09:35.000Z</time>
      </trkpt>
      <trkpt lat="48.21726" lon="7.29024">
        <ele>766.1</ele>
        <time>2021-08-14T11:09:49.000Z</time>
      </trkpt>
      <trkpt lat="48.2173" lon="7.29037">
        <ele>768.4</ele>
        <time>2021-08-14T11:10:04.000Z</time>
      </trkpt>
      <trkpt lat="48.21733" lon="7.2905">
        <ele>770.1</ele>
        <time>2021-08-14T11:10:15.000Z</time>
      </trkpt>
      <trkpt lat="48.21742" lon="7.29061">
        <ele>774.2</ele>
        <time>2021-08-14T11:10:47.000Z</time>
      </trkpt>
      <trkpt lat="48.21746" lon="7.29049">
        <ele>775.1</ele>
        <time>2021-08-14T11:12:27.000Z</time>
      </trkpt>
      <trkpt lat="48.21761" lon="7.29047">
        <ele>781.8</ele>
        <time>2021-08-14T11:12:48.000Z</time>
      </trkpt>
      <trkpt lat="48.21768" lon="7.29038">
        <ele>784.9</ele>
        <time>2021-08-14T11:13:01.000Z</time>
      </trkpt>
      <trkpt lat="48.21774" lon="7.29028">
        <ele>787</ele>
        <time>2021-08-14T11:13:13.000Z</time>
      </trkpt>
      <trkpt lat="48.21782" lon="7.29022">
        <ele>790.6</ele>
        <time>2021-08-14T11:13:28.000Z</time>
      </trkpt>
      <trkpt lat="48.21783" lon="7.29036">
        <ele>792.4</ele>
        <time>2021-08-14T11:13:54.000Z</time>
      </trkpt>
      <trkpt lat="48.21782" lon="7.2905">
        <ele>793.2</ele>
        <time>2021-08-14T11:14:05.000Z</time>
      </trkpt>
      <trkpt lat="48.21785" lon="7.29065">
        <ele>796.4</ele>
        <time>2021-08-14T11:14:16.000Z</time>
      </trkpt>
      <trkpt lat="48.21788" lon="7.29079">
        <ele>799.7</ele>
        <time>2021-08-14T11:14:25.000Z</time>
      </trkpt>
      <trkpt lat="48.2179" lon="7.29093">
        <ele>800.8</ele>
        <time>2021-08-14T11:14:32.000Z</time>
      </trkpt>
      <trkpt lat="48.21793" lon="7.29106">
        <ele>802</ele>
        <time>2021-08-14T11:14:45.000Z</time>
      </trkpt>
      <trkpt lat="48.21797" lon="7.2912">
        <ele>803.3</ele>
        <time>2021-08-14T11:14:58.000Z</time>
      </trkpt>
      <trkpt lat="48.21801" lon="7.29132">
        <ele>804.9</ele>
        <time>2021-08-14T11:15:07.000Z</time>
      </trkpt>
      <trkpt lat="48.2181" lon="7.29137">
        <ele>809.4</ele>
        <time>2021-08-14T11:15:23.000Z</time>
      </trkpt>
      <trkpt lat="48.21817" lon="7.29127">
        <ele>813.6</ele>
        <time>2021-08-14T11:15:37.000Z</time>
      </trkpt>
      <trkpt lat="48.21823" lon="7.29115">
        <ele>817.9</ele>
        <time>2021-08-14T11:15:55.000Z</time>
      </trkpt>
      <trkpt lat="48.21832" lon="7.29108">
        <ele>823.3</ele>
        <time>2021-08-14T11:16:10.000Z</time>
      </trkpt>
      <trkpt lat="48.21835" lon="7.29122">
        <ele>823.9</ele>
        <time>2021-08-14T11:16:47.000Z</time>
      </trkpt>
      <trkpt lat="48.21842" lon="7.29131">
        <ele>826.5</ele>
        <time>2021-08-14T11:17:00.000Z</time>
      </trkpt>
      <trkpt lat="48.21847" lon="7.2912">
        <ele>829.7</ele>
        <time>2021-08-14T11:17:09.000Z</time>
      </trkpt>
      <trkpt lat="48.2185" lon="7.29106">
        <ele>831.7</ele>
        <time>2021-08-14T11:17:21.000Z</time>
      </trkpt>
      <trkpt lat="48.21854" lon="7.29094">
        <ele>834.4</ele>
        <time>2021-08-14T11:17:32.000Z</time>
      </trkpt>
      <trkpt lat="48.21861" lon="7.29085">
        <ele>838.2</ele>
        <time>2021-08-14T11:17:42.000Z</time>
      </trkpt>
      <trkpt lat="48.21868" lon="7.29075">
        <ele>839.4</ele>
        <time>2021-08-14T11:18:01.000Z</time>
      </trkpt>
      <trkpt lat="48.21864" lon="7.29089">
        <ele>839.3</ele>
        <time>2021-08-14T11:18:19.000Z</time>
      </trkpt>
      <trkpt lat="48.21864" lon="7.29103">
        <ele>838.5</ele>
        <time>2021-08-14T11:18:35.000Z</time>
      </trkpt>
      <trkpt lat="48.21867" lon="7.29117">
        <ele>838.9</ele>
        <time>2021-08-14T11:18:54.000Z</time>
      </trkpt>
      <trkpt lat="48.21872" lon="7.29129">
        <ele>840.5</ele>
        <time>2021-08-14T11:19:03.000Z</time>
      </trkpt>
      <trkpt lat="48.21881" lon="7.29128">
        <ele>844.8</ele>
        <time>2021-08-14T11:19:12.000Z</time>
      </trkpt>
      <trkpt lat="48.21888" lon="7.29118">
        <ele>848.4</ele>
        <time>2021-08-14T11:19:22.000Z</time>
      </trkpt>
      <trkpt lat="48.21895" lon="7.29109">
        <ele>852.1</ele>
        <time>2021-08-14T11:19:41.000Z</time>
      </trkpt>
      <trkpt lat="48.21897" lon="7.29095">
        <ele>853.6</ele>
        <time>2021-08-14T11:19:50.000Z</time>
      </trkpt>
      <trkpt lat="48.21904" lon="7.29085">
        <ele>857.2</ele>
        <time>2021-08-14T11:20:02.000Z</time>
      </trkpt>
      <trkpt lat="48.21913" lon="7.29081">
        <ele>860.5</ele>
        <time>2021-08-14T11:20:19.000Z</time>
      </trkpt>
      <trkpt lat="48.21921" lon="7.29074">
        <ele>861.9</ele>
        <time>2021-08-14T11:20:39.000Z</time>
      </trkpt>
      <trkpt lat="48.21929" lon="7.29071">
        <ele>864.2</ele>
        <time>2021-08-14T11:20:53.000Z</time>
      </trkpt>
      <trkpt lat="48.21939" lon="7.29071">
        <ele>867.2</ele>
        <time>2021-08-14T11:21:07.000Z</time>
      </trkpt>
      <trkpt lat="48.21947" lon="7.29063">
        <ele>867.8</ele>
        <time>2021-08-14T11:21:31.000Z</time>
      </trkpt>
      <trkpt lat="48.21956" lon="7.29058">
        <ele>869.3</ele>
        <time>2021-08-14T11:21:55.000Z</time>
      </trkpt>
      <trkpt lat="48.21966" lon="7.29059">
        <ele>872.8</ele>
        <time>2021-08-14T11:22:01.000Z</time>
      </trkpt>
      <trkpt lat="48.21974" lon="7.29068">
        <ele>878.4</ele>
        <time>2021-08-14T11:22:43.000Z</time>
      </trkpt>
      <trkpt lat="48.21985" lon="7.29072">
        <ele>883.1</ele>
        <time>2021-08-14T11:23:12.000Z</time>
      </trkpt>
      <trkpt lat="48.21995" lon="7.29077">
        <ele>887.9</ele>
        <time>2021-08-14T11:23:27.000Z</time>
      </trkpt>
      <trkpt lat="48.21998" lon="7.29063">
        <ele>884.5</ele>
        <time>2021-08-14T11:23:45.000Z</time>
      </trkpt>
      <trkpt lat="48.21991" lon="7.29073">
        <ele>885.7</ele>
        <time>2021-08-14T11:23:57.000Z</time>
      </trkpt>
      <trkpt lat="48.21985" lon="7.29083">
        <ele>886.6</ele>
        <time>2021-08-14T11:24:09.000Z</time>
      </trkpt>
      <trkpt lat="48.21991" lon="7.29096">
        <ele>888.4</ele>
        <time>2021-08-14T11:24:23.000Z</time>
      </trkpt>
      <trkpt lat="48.21997" lon="7.29106">
        <ele>889.9</ele>
        <time>2021-08-14T11:24:34.000Z</time>
      </trkpt>
      <trkpt lat="48.21999" lon="7.2912">
        <ele>889.7</ele>
        <time>2021-08-14T11:25:05.000Z</time>
      </trkpt>
      <trkpt lat="48.22004" lon="7.29132">
        <ele>890</ele>
        <time>2021-08-14T11:25:18.000Z</time>
      </trkpt>
      <trkpt lat="48.22013" lon="7.29132">
        <ele>890.9</ele>
        <time>2021-08-14T11:25:29.000Z</time>
      </trkpt>
      <trkpt lat="48.22008" lon="7.29119">
        <ele>890.9</ele>
        <time>2021-08-14T11:26:07.000Z</time>
      </trkpt>
      <trkpt lat="48.22016" lon="7.29123">
        <ele>891.5</ele>
        <time>2021-08-14T11:31:13.000Z</time>
      </trkpt>
      <trkpt lat="48.22026" lon="7.29124">
        <ele>892.4</ele>
        <time>2021-08-14T11:31:24.000Z</time>
      </trkpt>
      <trkpt lat="48.22036" lon="7.29124">
        <ele>893.2</ele>
        <time>2021-08-14T11:31:33.000Z</time>
      </trkpt>
      <trkpt lat="48.22046" lon="7.29127">
        <ele>894.1</ele>
        <time>2021-08-14T11:31:44.000Z</time>
      </trkpt>
      <trkpt lat="48.22055" lon="7.29132">
        <ele>894.8</ele>
        <time>2021-08-14T11:31:53.000Z</time>
      </trkpt>
      <trkpt lat="48.2206" lon="7.29143">
        <ele>895.3</ele>
        <time>2021-08-14T11:32:03.000Z</time>
      </trkpt>
      <trkpt lat="48.22061" lon="7.29159">
        <ele>895.4</ele>
        <time>2021-08-14T11:32:49.000Z</time>
      </trkpt>
      <trkpt lat="48.2205" lon="7.29126">
        <ele>894.5</ele>
        <time>2021-08-14T11:33:45.000Z</time>
      </trkpt>
      <trkpt lat="48.22041" lon="7.29123">
        <ele>893.7</ele>
        <time>2021-08-14T11:33:55.000Z</time>
      </trkpt>
      <trkpt lat="48.22045" lon="7.29137">
        <ele>893.8</ele>
        <time>2021-08-14T11:34:05.000Z</time>
      </trkpt>
      <trkpt lat="48.22046" lon="7.29154">
        <ele>893.7</ele>
        <time>2021-08-14T11:35:27.000Z</time>
      </trkpt>
      <trkpt lat="48.22056" lon="7.29148">
        <ele>894.8</ele>
        <time>2021-08-14T11:37:52.000Z</time>
      </trkpt>
      <trkpt lat="48.22067" lon="7.29159">
        <ele>896</ele>
        <time>2021-08-14T11:37:59.000Z</time>
      </trkpt>
      <trkpt lat="48.22061" lon="7.29146">
        <ele>895.4</ele>
        <time>2021-08-14T11:38:21.000Z</time>
      </trkpt>
      <trkpt lat="48.22061" lon="7.29131">
        <ele>895.5</ele>
        <time>2021-08-14T11:45:31.000Z</time>
      </trkpt>
      <trkpt lat="48.22068" lon="7.29148">
        <ele>896.2</ele>
        <time>2021-08-14T11:46:05.000Z</time>
      </trkpt>
      <trkpt lat="48.22059" lon="7.29149">
        <ele>895.2</ele>
        <time>2021-08-14T11:46:28.000Z</time>
      </trkpt>
      <trkpt lat="48.22061" lon="7.29135">
        <ele>895.4</ele>
        <time>2021-08-14T11:57:20.000Z</time>
      </trkpt>
      <trkpt lat="48.22068" lon="7.29128">
        <ele>896.2</ele>
        <time>2021-08-14T11:57:35.000Z</time>
      </trkpt>
      <trkpt lat="48.22077" lon="7.29122">
        <ele>896.9</ele>
        <time>2021-08-14T11:57:51.000Z</time>
      </trkpt>
      <trkpt lat="48.22087" lon="7.29126">
        <ele>897.2</ele>
        <time>2021-08-14T11:58:03.000Z</time>
      </trkpt>
      <trkpt lat="48.22097" lon="7.29124">
        <ele>896.1</ele>
        <time>2021-08-14T11:58:13.000Z</time>
      </trkpt>
      <trkpt lat="48.22107" lon="7.29122">
        <ele>895.2</ele>
        <time>2021-08-14T11:58:21.000Z</time>
      </trkpt>
      <trkpt lat="48.22117" lon="7.2912">
        <ele>894.3</ele>
        <time>2021-08-14T11:58:28.000Z</time>
      </trkpt>
      <trkpt lat="48.22126" lon="7.2912">
        <ele>893.4</ele>
        <time>2021-08-14T11:58:36.000Z</time>
      </trkpt>
      <trkpt lat="48.22136" lon="7.29119">
        <ele>892.4</ele>
        <time>2021-08-14T11:58:45.000Z</time>
      </trkpt>
      <trkpt lat="48.22145" lon="7.29123">
        <ele>891.3</ele>
        <time>2021-08-14T11:58:53.000Z</time>
      </trkpt>
      <trkpt lat="48.22154" lon="7.2912">
        <ele>890.7</ele>
        <time>2021-08-14T11:59:01.000Z</time>
      </trkpt>
      <trkpt lat="48.22163" lon="7.29119">
        <ele>890</ele>
        <time>2021-08-14T11:59:07.000Z</time>
      </trkpt>
      <trkpt lat="48.22173" lon="7.29114">
        <ele>889.6</ele>
        <time>2021-08-14T11:59:14.000Z</time>
      </trkpt>
      <trkpt lat="48.22182" lon="7.2911">
        <ele>889.3</ele>
        <time>2021-08-14T11:59:23.000Z</time>
      </trkpt>
      <trkpt lat="48.22191" lon="7.29104">
        <ele>889.4</ele>
        <time>2021-08-14T11:59:34.000Z</time>
      </trkpt>
      <trkpt lat="48.22199" lon="7.29098">
        <ele>889.7</ele>
        <time>2021-08-14T11:59:44.000Z</time>
      </trkpt>
      <trkpt lat="48.22209" lon="7.29094">
        <ele>889.9</ele>
        <time>2021-08-14T11:59:49.000Z</time>
      </trkpt>
      <trkpt lat="48.22218" lon="7.29092">
        <ele>889.6</ele>
        <time>2021-08-14T11:59:54.000Z</time>
      </trkpt>
      <trkpt lat="48.22226" lon="7.29099">
        <ele>888</ele>
        <time>2021-08-14T12:00:05.000Z</time>
      </trkpt>
      <trkpt lat="48.22226" lon="7.29086">
        <ele>890.5</ele>
        <time>2021-08-14T12:00:31.000Z</time>
      </trkpt>
      <trkpt lat="48.22235" lon="7.29083">
        <ele>890.5</ele>
        <time>2021-08-14T12:00:39.000Z</time>
      </trkpt>
      <trkpt lat="48.22244" lon="7.29085">
        <ele>889.9</ele>
        <time>2021-08-14T12:00:49.000Z</time>
      </trkpt>
      <trkpt lat="48.22254" lon="7.29083">
        <ele>889.6</ele>
        <time>2021-08-14T12:01:02.000Z</time>
      </trkpt>
      <trkpt lat="48.22264" lon="7.29077">
        <ele>888.1</ele>
        <time>2021-08-14T12:01:08.000Z</time>
      </trkpt>
      <trkpt lat="48.22273" lon="7.29074">
        <ele>887.2</ele>
        <time>2021-08-14T12:01:14.000Z</time>
      </trkpt>
      <trkpt lat="48.22283" lon="7.29076">
        <ele>886.9</ele>
        <time>2021-08-14T12:01:23.000Z</time>
      </trkpt>
      <trkpt lat="48.22292" lon="7.29071">
        <ele>886.1</ele>
        <time>2021-08-14T12:01:31.000Z</time>
      </trkpt>
      <trkpt lat="48.22303" lon="7.29068">
        <ele>885.5</ele>
        <time>2021-08-14T12:01:39.000Z</time>
      </trkpt>
      <trkpt lat="48.22313" lon="7.29064">
        <ele>885.1</ele>
        <time>2021-08-14T12:01:47.000Z</time>
      </trkpt>
      <trkpt lat="48.22321" lon="7.29058">
        <ele>884.9</ele>
        <time>2021-08-14T12:01:56.000Z</time>
      </trkpt>
      <trkpt lat="48.22331" lon="7.29053">
        <ele>885.1</ele>
        <time>2021-08-14T12:02:03.000Z</time>
      </trkpt>
      <trkpt lat="48.2234" lon="7.29043">
        <ele>884.4</ele>
        <time>2021-08-14T12:02:10.000Z</time>
      </trkpt>
      <trkpt lat="48.22347" lon="7.29035">
        <ele>883.9</ele>
        <time>2021-08-14T12:02:16.000Z</time>
      </trkpt>
      <trkpt lat="48.22353" lon="7.29024">
        <ele>883.8</ele>
        <time>2021-08-14T12:02:24.000Z</time>
      </trkpt>
      <trkpt lat="48.22357" lon="7.2901">
        <ele>884.2</ele>
        <time>2021-08-14T12:02:29.000Z</time>
      </trkpt>
      <trkpt lat="48.22359" lon="7.28996">
        <ele>884.3</ele>
        <time>2021-08-14T12:02:37.000Z</time>
      </trkpt>
      <trkpt lat="48.22365" lon="7.28985">
        <ele>882.4</ele>
        <time>2021-08-14T12:02:45.000Z</time>
      </trkpt>
      <trkpt lat="48.22374" lon="7.28972">
        <ele>880.8</ele>
        <time>2021-08-14T12:03:00.000Z</time>
      </trkpt>
      <trkpt lat="48.22381" lon="7.2896">
        <ele>880</ele>
        <time>2021-08-14T12:03:10.000Z</time>
      </trkpt>
      <trkpt lat="48.2239" lon="7.28955">
        <ele>880.2</ele>
        <time>2021-08-14T12:03:23.000Z</time>
      </trkpt>
      <trkpt lat="48.22398" lon="7.28948">
        <ele>880.7</ele>
        <time>2021-08-14T12:03:32.000Z</time>
      </trkpt>
      <trkpt lat="48.22407" lon="7.28942">
        <ele>881.7</ele>
        <time>2021-08-14T12:03:38.000Z</time>
      </trkpt>
      <trkpt lat="48.22413" lon="7.2893">
        <ele>882.8</ele>
        <time>2021-08-14T12:03:44.000Z</time>
      </trkpt>
      <trkpt lat="48.22418" lon="7.28919">
        <ele>883.6</ele>
        <time>2021-08-14T12:03:50.000Z</time>
      </trkpt>
      <trkpt lat="48.22425" lon="7.2891">
        <ele>880.9</ele>
        <time>2021-08-14T12:03:59.000Z</time>
      </trkpt>
      <trkpt lat="48.22433" lon="7.28902">
        <ele>878.3</ele>
        <time>2021-08-14T12:04:07.000Z</time>
      </trkpt>
      <trkpt lat="48.22438" lon="7.2889">
        <ele>876.5</ele>
        <time>2021-08-14T12:04:12.000Z</time>
      </trkpt>
      <trkpt lat="48.22445" lon="7.28879">
        <ele>874.9</ele>
        <time>2021-08-14T12:04:17.000Z</time>
      </trkpt>
      <trkpt lat="48.22452" lon="7.28867">
        <ele>873.8</ele>
        <time>2021-08-14T12:04:22.000Z</time>
      </trkpt>
      <trkpt lat="48.22457" lon="7.28855">
        <ele>873.3</ele>
        <time>2021-08-14T12:04:30.000Z</time>
      </trkpt>
      <trkpt lat="48.22464" lon="7.28845">
        <ele>873.2</ele>
        <time>2021-08-14T12:04:39.000Z</time>
      </trkpt>
      <trkpt lat="48.22468" lon="7.28831">
        <ele>873.4</ele>
        <time>2021-08-14T12:04:48.000Z</time>
      </trkpt>
      <trkpt lat="48.22472" lon="7.28819">
        <ele>872</ele>
        <time>2021-08-14T12:04:56.000Z</time>
      </trkpt>
      <trkpt lat="48.22478" lon="7.28808">
        <ele>871.4</ele>
        <time>2021-08-14T12:05:03.000Z</time>
      </trkpt>
      <trkpt lat="48.22484" lon="7.28796">
        <ele>871</ele>
        <time>2021-08-14T12:05:23.000Z</time>
      </trkpt>
      <trkpt lat="48.22491" lon="7.28787">
        <ele>871.5</ele>
        <time>2021-08-14T12:05:33.000Z</time>
      </trkpt>
      <trkpt lat="48.225" lon="7.28782">
        <ele>872.8</ele>
        <time>2021-08-14T12:05:43.000Z</time>
      </trkpt>
      <trkpt lat="48.22506" lon="7.28771">
        <ele>871.1</ele>
        <time>2021-08-14T12:05:51.000Z</time>
      </trkpt>
      <trkpt lat="48.22513" lon="7.28761">
        <ele>869.5</ele>
        <time>2021-08-14T12:05:58.000Z</time>
      </trkpt>
      <trkpt lat="48.22517" lon="7.28748">
        <ele>868.8</ele>
        <time>2021-08-14T12:06:05.000Z</time>
      </trkpt>
      <trkpt lat="48.2252" lon="7.28735">
        <ele>867</ele>
        <time>2021-08-14T12:06:11.000Z</time>
      </trkpt>
      <trkpt lat="48.22524" lon="7.28722">
        <ele>865.5</ele>
        <time>2021-08-14T12:06:20.000Z</time>
      </trkpt>
      <trkpt lat="48.22531" lon="7.28711">
        <ele>864.4</ele>
        <time>2021-08-14T12:06:27.000Z</time>
      </trkpt>
      <trkpt lat="48.22539" lon="7.28703">
        <ele>863.9</ele>
        <time>2021-08-14T12:06:35.000Z</time>
      </trkpt>
      <trkpt lat="48.22545" lon="7.28689">
        <ele>863.9</ele>
        <time>2021-08-14T12:06:42.000Z</time>
      </trkpt>
      <trkpt lat="48.22548" lon="7.28673">
        <ele>864.2</ele>
        <time>2021-08-14T12:06:48.000Z</time>
      </trkpt>
      <trkpt lat="48.22553" lon="7.28662">
        <ele>864.6</ele>
        <time>2021-08-14T12:06:56.000Z</time>
      </trkpt>
      <trkpt lat="48.2256" lon="7.28653">
        <ele>865.1</ele>
        <time>2021-08-14T12:07:05.000Z</time>
      </trkpt>
      <trkpt lat="48.22566" lon="7.28643">
        <ele>865.8</ele>
        <time>2021-08-14T12:07:15.000Z</time>
      </trkpt>
      <trkpt lat="48.22572" lon="7.28633">
        <ele>866.9</ele>
        <time>2021-08-14T12:07:22.000Z</time>
      </trkpt>
      <trkpt lat="48.22578" lon="7.28621">
        <ele>868</ele>
        <time>2021-08-14T12:07:29.000Z</time>
      </trkpt>
      <trkpt lat="48.22582" lon="7.28608">
        <ele>869.4</ele>
        <time>2021-08-14T12:07:37.000Z</time>
      </trkpt>
      <trkpt lat="48.22587" lon="7.28596">
        <ele>869.8</ele>
        <time>2021-08-14T12:07:44.000Z</time>
      </trkpt>
      <trkpt lat="48.22591" lon="7.28583">
        <ele>870.1</ele>
        <time>2021-08-14T12:07:51.000Z</time>
      </trkpt>
      <trkpt lat="48.22596" lon="7.2857">
        <ele>869.3</ele>
        <time>2021-08-14T12:08:00.000Z</time>
      </trkpt>
      <trkpt lat="48.22601" lon="7.28557">
        <ele>868.8</ele>
        <time>2021-08-14T12:08:06.000Z</time>
      </trkpt>
      <trkpt lat="48.22606" lon="7.28545">
        <ele>868.7</ele>
        <time>2021-08-14T12:08:16.000Z</time>
      </trkpt>
      <trkpt lat="48.22609" lon="7.28532">
        <ele>868.7</ele>
        <time>2021-08-14T12:08:24.000Z</time>
      </trkpt>
      <trkpt lat="48.22615" lon="7.28521">
        <ele>869.4</ele>
        <time>2021-08-14T12:08:32.000Z</time>
      </trkpt>
      <trkpt lat="48.22622" lon="7.28512">
        <ele>870.7</ele>
        <time>2021-08-14T12:08:44.000Z</time>
      </trkpt>
      <trkpt lat="48.22629" lon="7.28503">
        <ele>872.4</ele>
        <time>2021-08-14T12:08:51.000Z</time>
      </trkpt>
      <trkpt lat="48.22639" lon="7.28503">
        <ele>874.9</ele>
        <time>2021-08-14T12:09:03.000Z</time>
      </trkpt>
      <trkpt lat="48.22634" lon="7.28515">
        <ele>873.3</ele>
        <time>2021-08-14T12:09:39.000Z</time>
      </trkpt>
      <trkpt lat="48.22633" lon="7.28529">
        <ele>872.6</ele>
        <time>2021-08-14T12:09:55.000Z</time>
      </trkpt>
      <trkpt lat="48.22642" lon="7.28528">
        <ele>874.3</ele>
        <time>2021-08-14T12:10:23.000Z</time>
      </trkpt>
      <trkpt lat="48.22648" lon="7.28517">
        <ele>876.2</ele>
        <time>2021-08-14T12:10:32.000Z</time>
      </trkpt>
      <trkpt lat="48.22652" lon="7.28504">
        <ele>878</ele>
        <time>2021-08-14T12:10:42.000Z</time>
      </trkpt>
      <trkpt lat="48.22657" lon="7.28491">
        <ele>880.1</ele>
        <time>2021-08-14T12:10:55.000Z</time>
      </trkpt>
      <trkpt lat="48.22662" lon="7.28478">
        <ele>882.4</ele>
        <time>2021-08-14T12:11:02.000Z</time>
      </trkpt>
      <trkpt lat="48.22666" lon="7.28466">
        <ele>884.7</ele>
        <time>2021-08-14T12:11:18.000Z</time>
      </trkpt>
      <trkpt lat="48.22673" lon="7.28454">
        <ele>885.7</ele>
        <time>2021-08-14T12:11:25.000Z</time>
      </trkpt>
      <trkpt lat="48.22679" lon="7.28444">
        <ele>886.7</ele>
        <time>2021-08-14T12:11:38.000Z</time>
      </trkpt>
      <trkpt lat="48.22684" lon="7.28432">
        <ele>888.2</ele>
        <time>2021-08-14T12:11:51.000Z</time>
      </trkpt>
      <trkpt lat="48.22683" lon="7.28418">
        <ele>889.9</ele>
        <time>2021-08-14T12:12:08.000Z</time>
      </trkpt>
      <trkpt lat="48.22684" lon="7.28402">
        <ele>892.3</ele>
        <time>2021-08-14T12:12:53.000Z</time>
      </trkpt>
      <trkpt lat="48.22675" lon="7.28402">
        <ele>891.4</ele>
        <time>2021-08-14T12:13:07.000Z</time>
      </trkpt>
      <trkpt lat="48.22671" lon="7.28414">
        <ele>889.5</ele>
        <time>2021-08-14T12:13:18.000Z</time>
      </trkpt>
      <trkpt lat="48.22667" lon="7.28428">
        <ele>888</ele>
        <time>2021-08-14T12:13:30.000Z</time>
      </trkpt>
      <trkpt lat="48.22661" lon="7.28439">
        <ele>884.9</ele>
        <time>2021-08-14T12:13:40.000Z</time>
      </trkpt>
      <trkpt lat="48.22661" lon="7.28456">
        <ele>883.7</ele>
        <time>2021-08-14T12:13:46.000Z</time>
      </trkpt>
      <trkpt lat="48.22663" lon="7.2847">
        <ele>883.4</ele>
        <time>2021-08-14T12:13:51.000Z</time>
      </trkpt>
      <trkpt lat="48.2267" lon="7.28479">
        <ele>883.5</ele>
        <time>2021-08-14T12:13:58.000Z</time>
      </trkpt>
      <trkpt lat="48.22679" lon="7.28476">
        <ele>883.1</ele>
        <time>2021-08-14T12:14:16.000Z</time>
      </trkpt>
      <trkpt lat="48.22683" lon="7.28489">
        <ele>881.2</ele>
        <time>2021-08-14T12:14:48.000Z</time>
      </trkpt>
      <trkpt lat="48.22688" lon="7.28502">
        <ele>878.9</ele>
        <time>2021-08-14T12:14:57.000Z</time>
      </trkpt>
      <trkpt lat="48.22695" lon="7.28511">
        <ele>876.3</ele>
        <time>2021-08-14T12:15:06.000Z</time>
      </trkpt>
      <trkpt lat="48.22703" lon="7.2852">
        <ele>873.6</ele>
        <time>2021-08-14T12:15:16.000Z</time>
      </trkpt>
      <trkpt lat="48.2271" lon="7.28528">
        <ele>870.6</ele>
        <time>2021-08-14T12:15:25.000Z</time>
      </trkpt>
      <trkpt lat="48.22718" lon="7.28534">
        <ele>867.8</ele>
        <time>2021-08-14T12:15:33.000Z</time>
      </trkpt>
      <trkpt lat="48.22727" lon="7.28529">
        <ele>867.3</ele>
        <time>2021-08-14T12:15:43.000Z</time>
      </trkpt>
      <trkpt lat="48.22733" lon="7.2854">
        <ele>863.5</ele>
        <time>2021-08-14T12:16:05.000Z</time>
      </trkpt>
      <trkpt lat="48.22729" lon="7.28553">
        <ele>861.3</ele>
        <time>2021-08-14T12:16:16.000Z</time>
      </trkpt>
      <trkpt lat="48.22728" lon="7.28567">
        <ele>858.4</ele>
        <time>2021-08-14T12:16:27.000Z</time>
      </trkpt>
      <trkpt lat="48.22725" lon="7.2858">
        <ele>856.1</ele>
        <time>2021-08-14T12:16:39.000Z</time>
      </trkpt>
      <trkpt lat="48.2272" lon="7.28592">
        <ele>854</ele>
        <time>2021-08-14T12:16:47.000Z</time>
      </trkpt>
      <trkpt lat="48.22716" lon="7.28604">
        <ele>851.8</ele>
        <time>2021-08-14T12:16:56.000Z</time>
      </trkpt>
      <trkpt lat="48.22711" lon="7.28617">
        <ele>849.4</ele>
        <time>2021-08-14T12:17:05.000Z</time>
      </trkpt>
      <trkpt lat="48.22707" lon="7.2863">
        <ele>846.8</ele>
        <time>2021-08-14T12:17:14.000Z</time>
      </trkpt>
      <trkpt lat="48.22703" lon="7.28642">
        <ele>844.7</ele>
        <time>2021-08-14T12:17:24.000Z</time>
      </trkpt>
      <trkpt lat="48.227" lon="7.28655">
        <ele>841.7</ele>
        <time>2021-08-14T12:17:36.000Z</time>
      </trkpt>
      <trkpt lat="48.22697" lon="7.28669">
        <ele>838.9</ele>
        <time>2021-08-14T12:17:48.000Z</time>
      </trkpt>
      <trkpt lat="48.22693" lon="7.28684">
        <ele>836.2</ele>
        <time>2021-08-14T12:17:58.000Z</time>
      </trkpt>
      <trkpt lat="48.2269" lon="7.28697">
        <ele>833.8</ele>
        <time>2021-08-14T12:18:08.000Z</time>
      </trkpt>
      <trkpt lat="48.22685" lon="7.2871">
        <ele>832.2</ele>
        <time>2021-08-14T12:18:18.000Z</time>
      </trkpt>
      <trkpt lat="48.22682" lon="7.28723">
        <ele>830</ele>
        <time>2021-08-14T12:18:27.000Z</time>
      </trkpt>
      <trkpt lat="48.2269" lon="7.28729">
        <ele>825.2</ele>
        <time>2021-08-14T12:18:43.000Z</time>
      </trkpt>
      <trkpt lat="48.22693" lon="7.28716">
        <ele>827.8</ele>
        <time>2021-08-14T12:18:55.000Z</time>
      </trkpt>
      <trkpt lat="48.22701" lon="7.28709">
        <ele>826.4</ele>
        <time>2021-08-14T12:19:05.000Z</time>
      </trkpt>
      <trkpt lat="48.22711" lon="7.28711">
        <ele>822.5</ele>
        <time>2021-08-14T12:19:11.000Z</time>
      </trkpt>
      <trkpt lat="48.22721" lon="7.28706">
        <ele>820</ele>
        <time>2021-08-14T12:19:18.000Z</time>
      </trkpt>
      <trkpt lat="48.22731" lon="7.28704">
        <ele>817.1</ele>
        <time>2021-08-14T12:19:27.000Z</time>
      </trkpt>
      <trkpt lat="48.2274" lon="7.28702">
        <ele>814.1</ele>
        <time>2021-08-14T12:19:35.000Z</time>
      </trkpt>
      <trkpt lat="48.2275" lon="7.28702">
        <ele>810.4</ele>
        <time>2021-08-14T12:19:48.000Z</time>
      </trkpt>
      <trkpt lat="48.22759" lon="7.28699">
        <ele>808.5</ele>
        <time>2021-08-14T12:20:01.000Z</time>
      </trkpt>
      <trkpt lat="48.22769" lon="7.28701">
        <ele>804.9</ele>
        <time>2021-08-14T12:20:13.000Z</time>
      </trkpt>
      <trkpt lat="48.22779" lon="7.28697">
        <ele>802.8</ele>
        <time>2021-08-14T12:20:22.000Z</time>
      </trkpt>
      <trkpt lat="48.22787" lon="7.2869">
        <ele>802.5</ele>
        <time>2021-08-14T12:20:29.000Z</time>
      </trkpt>
      <trkpt lat="48.22796" lon="7.28684">
        <ele>801.1</ele>
        <time>2021-08-14T12:20:35.000Z</time>
      </trkpt>
      <trkpt lat="48.22805" lon="7.28681">
        <ele>798.8</ele>
        <time>2021-08-14T12:20:42.000Z</time>
      </trkpt>
      <trkpt lat="48.22814" lon="7.28679">
        <ele>796.7</ele>
        <time>2021-08-14T12:20:51.000Z</time>
      </trkpt>
      <trkpt lat="48.22802" lon="7.28681">
        <ele>799.9</ele>
        <time>2021-08-14T12:21:17.000Z</time>
      </trkpt>
      <trkpt lat="48.22803" lon="7.28695">
        <ele>795.9</ele>
        <time>2021-08-14T12:21:29.000Z</time>
      </trkpt>
      <trkpt lat="48.22803" lon="7.2871">
        <ele>792.2</ele>
        <time>2021-08-14T12:21:44.000Z</time>
      </trkpt>
      <trkpt lat="48.22806" lon="7.28724">
        <ele>787.7</ele>
        <time>2021-08-14T12:21:50.000Z</time>
      </trkpt>
      <trkpt lat="48.22814" lon="7.28732">
        <ele>783.6</ele>
        <time>2021-08-14T12:21:56.000Z</time>
      </trkpt>
      <trkpt lat="48.22823" lon="7.28733">
        <ele>780.8</ele>
        <time>2021-08-14T12:22:06.000Z</time>
      </trkpt>
      <trkpt lat="48.22831" lon="7.28724">
        <ele>780.7</ele>
        <time>2021-08-14T12:22:18.000Z</time>
      </trkpt>
      <trkpt lat="48.22838" lon="7.28713">
        <ele>781.3</ele>
        <time>2021-08-14T12:22:26.000Z</time>
      </trkpt>
      <trkpt lat="48.22847" lon="7.2871">
        <ele>779.8</ele>
        <time>2021-08-14T12:22:40.000Z</time>
      </trkpt>
      <trkpt lat="48.22857" lon="7.28709">
        <ele>777.5</ele>
        <time>2021-08-14T12:22:47.000Z</time>
      </trkpt>
      <trkpt lat="48.22866" lon="7.28706">
        <ele>775.8</ele>
        <time>2021-08-14T12:23:00.000Z</time>
      </trkpt>
      <trkpt lat="48.22875" lon="7.28702">
        <ele>774.6</ele>
        <time>2021-08-14T12:23:08.000Z</time>
      </trkpt>
      <trkpt lat="48.22869" lon="7.28712">
        <ele>773.7</ele>
        <time>2021-08-14T12:23:28.000Z</time>
      </trkpt>
      <trkpt lat="48.22862" lon="7.28724">
        <ele>772.6</ele>
        <time>2021-08-14T12:23:41.000Z</time>
      </trkpt>
      <trkpt lat="48.22858" lon="7.28736">
        <ele>770.7</ele>
        <time>2021-08-14T12:23:50.000Z</time>
      </trkpt>
      <trkpt lat="48.22858" lon="7.28751">
        <ele>767.4</ele>
        <time>2021-08-14T12:24:00.000Z</time>
      </trkpt>
      <trkpt lat="48.22853" lon="7.28763">
        <ele>765.3</ele>
        <time>2021-08-14T12:24:12.000Z</time>
      </trkpt>
      <trkpt lat="48.22852" lon="7.28778">
        <ele>761.7</ele>
        <time>2021-08-14T12:24:20.000Z</time>
      </trkpt>
      <trkpt lat="48.2286" lon="7.28787">
        <ele>757</ele>
        <time>2021-08-14T12:24:28.000Z</time>
      </trkpt>
      <trkpt lat="48.22869" lon="7.28793">
        <ele>752.9</ele>
        <time>2021-08-14T12:24:35.000Z</time>
      </trkpt>
      <trkpt lat="48.22877" lon="7.28799">
        <ele>748.9</ele>
        <time>2021-08-14T12:24:44.000Z</time>
      </trkpt>
      <trkpt lat="48.22886" lon="7.28804">
        <ele>745.1</ele>
        <time>2021-08-14T12:24:58.000Z</time>
      </trkpt>
      <trkpt lat="48.22894" lon="7.2881">
        <ele>741.2</ele>
        <time>2021-08-14T12:25:06.000Z</time>
      </trkpt>
      <trkpt lat="48.22888" lon="7.28821">
        <ele>739.6</ele>
        <time>2021-08-14T12:25:27.000Z</time>
      </trkpt>
      <trkpt lat="48.22883" lon="7.28834">
        <ele>737.8</ele>
        <time>2021-08-14T12:25:37.000Z</time>
      </trkpt>
      <trkpt lat="48.22876" lon="7.28842">
        <ele>737.9</ele>
        <time>2021-08-14T12:25:46.000Z</time>
      </trkpt>
      <trkpt lat="48.22867" lon="7.28849">
        <ele>738.9</ele>
        <time>2021-08-14T12:25:56.000Z</time>
      </trkpt>
      <trkpt lat="48.22864" lon="7.28862">
        <ele>737</ele>
        <time>2021-08-14T12:26:08.000Z</time>
      </trkpt>
      <trkpt lat="48.2286" lon="7.28874">
        <ele>735.5</ele>
        <time>2021-08-14T12:26:17.000Z</time>
      </trkpt>
      <trkpt lat="48.22856" lon="7.28889">
        <ele>733.1</ele>
        <time>2021-08-14T12:26:24.000Z</time>
      </trkpt>
      <trkpt lat="48.22851" lon="7.28903">
        <ele>731</ele>
        <time>2021-08-14T12:26:30.000Z</time>
      </trkpt>
      <trkpt lat="48.22847" lon="7.28917">
        <ele>728.9</ele>
        <time>2021-08-14T12:26:39.000Z</time>
      </trkpt>
      <trkpt lat="48.22841" lon="7.28928">
        <ele>727.9</ele>
        <time>2021-08-14T12:26:49.000Z</time>
      </trkpt>
      <trkpt lat="48.22838" lon="7.28942">
        <ele>725.7</ele>
        <time>2021-08-14T12:27:00.000Z</time>
      </trkpt>
      <trkpt lat="48.22842" lon="7.28955">
        <ele>722.3</ele>
        <time>2021-08-14T12:27:06.000Z</time>
      </trkpt>
      <trkpt lat="48.2285" lon="7.28963">
        <ele>718.7</ele>
        <time>2021-08-14T12:27:13.000Z</time>
      </trkpt>
      <trkpt lat="48.22857" lon="7.28973">
        <ele>715.1</ele>
        <time>2021-08-14T12:27:21.000Z</time>
      </trkpt>
      <trkpt lat="48.22865" lon="7.28979">
        <ele>711.7</ele>
        <time>2021-08-14T12:27:32.000Z</time>
      </trkpt>
      <trkpt lat="48.22874" lon="7.28985">
        <ele>708.6</ele>
        <time>2021-08-14T12:27:42.000Z</time>
      </trkpt>
      <trkpt lat="48.22884" lon="7.28988">
        <ele>705.5</ele>
        <time>2021-08-14T12:27:50.000Z</time>
      </trkpt>
      <trkpt lat="48.22893" lon="7.28991">
        <ele>702.6</ele>
        <time>2021-08-14T12:28:00.000Z</time>
      </trkpt>
      <trkpt lat="48.22903" lon="7.28991">
        <ele>700.4</ele>
        <time>2021-08-14T12:28:09.000Z</time>
      </trkpt>
      <trkpt lat="48.22896" lon="7.29">
        <ele>700</ele>
        <time>2021-08-14T12:28:43.000Z</time>
      </trkpt>
      <trkpt lat="48.22889" lon="7.29011">
        <ele>699</ele>
        <time>2021-08-14T12:28:53.000Z</time>
      </trkpt>
      <trkpt lat="48.22882" lon="7.29018">
        <ele>698.9</ele>
        <time>2021-08-14T12:29:06.000Z</time>
      </trkpt>
      <trkpt lat="48.22877" lon="7.29031">
        <ele>697</ele>
        <time>2021-08-14T12:29:16.000Z</time>
      </trkpt>
      <trkpt lat="48.22871" lon="7.29042">
        <ele>695.5</ele>
        <time>2021-08-14T12:29:23.000Z</time>
      </trkpt>
      <trkpt lat="48.22865" lon="7.29053">
        <ele>694.5</ele>
        <time>2021-08-14T12:29:30.000Z</time>
      </trkpt>
      <trkpt lat="48.22864" lon="7.29067">
        <ele>691.2</ele>
        <time>2021-08-14T12:29:40.000Z</time>
      </trkpt>
      <trkpt lat="48.22866" lon="7.29081">
        <ele>687.4</ele>
        <time>2021-08-14T12:29:50.000Z</time>
      </trkpt>
      <trkpt lat="48.22869" lon="7.29095">
        <ele>683.8</ele>
        <time>2021-08-14T12:29:58.000Z</time>
      </trkpt>
      <trkpt lat="48.22874" lon="7.29109">
        <ele>679.6</ele>
        <time>2021-08-14T12:30:11.000Z</time>
      </trkpt>
      <trkpt lat="48.22882" lon="7.29118">
        <ele>675.8</ele>
        <time>2021-08-14T12:30:24.000Z</time>
      </trkpt>
      <trkpt lat="48.22891" lon="7.29113">
        <ele>674.1</ele>
        <time>2021-08-14T12:30:31.000Z</time>
      </trkpt>
      <trkpt lat="48.22897" lon="7.29102">
        <ele>674.7</ele>
        <time>2021-08-14T12:30:41.000Z</time>
      </trkpt>
      <trkpt lat="48.22906" lon="7.29096">
        <ele>673.7</ele>
        <time>2021-08-14T12:30:51.000Z</time>
      </trkpt>
      <trkpt lat="48.22915" lon="7.29102">
        <ele>669.7</ele>
        <time>2021-08-14T12:31:05.000Z</time>
      </trkpt>
      <trkpt lat="48.22926" lon="7.291">
        <ele>667.1</ele>
        <time>2021-08-14T12:31:13.000Z</time>
      </trkpt>
      <trkpt lat="48.22936" lon="7.29097">
        <ele>665</ele>
        <time>2021-08-14T12:31:21.000Z</time>
      </trkpt>
      <trkpt lat="48.22945" lon="7.29096">
        <ele>662.5</ele>
        <time>2021-08-14T12:31:29.000Z</time>
      </trkpt>
      <trkpt lat="48.22955" lon="7.29097">
        <ele>659.5</ele>
        <time>2021-08-14T12:31:39.000Z</time>
      </trkpt>
      <trkpt lat="48.22965" lon="7.29097">
        <ele>656.6</ele>
        <time>2021-08-14T12:31:48.000Z</time>
      </trkpt>
      <trkpt lat="48.22974" lon="7.29098">
        <ele>653.7</ele>
        <time>2021-08-14T12:31:57.000Z</time>
      </trkpt>
      <trkpt lat="48.22984" lon="7.29099">
        <ele>650.4</ele>
        <time>2021-08-14T12:32:07.000Z</time>
      </trkpt>
      <trkpt lat="48.22993" lon="7.29105">
        <ele>646.3</ele>
        <time>2021-08-14T12:32:30.000Z</time>
      </trkpt>
      <trkpt lat="48.23002" lon="7.29111">
        <ele>642.2</ele>
        <time>2021-08-14T12:32:38.000Z</time>
      </trkpt>
      <trkpt lat="48.23011" lon="7.29111">
        <ele>639.6</ele>
        <time>2021-08-14T12:32:46.000Z</time>
      </trkpt>
      <trkpt lat="48.23021" lon="7.29114">
        <ele>636.8</ele>
        <time>2021-08-14T12:32:54.000Z</time>
      </trkpt>
      <trkpt lat="48.23029" lon="7.29118">
        <ele>633.6</ele>
        <time>2021-08-14T12:33:02.000Z</time>
      </trkpt>
      <trkpt lat="48.23039" lon="7.29121">
        <ele>630.7</ele>
        <time>2021-08-14T12:33:12.000Z</time>
      </trkpt>
      <trkpt lat="48.23039" lon="7.29135">
        <ele>627</ele>
        <time>2021-08-14T12:33:26.000Z</time>
      </trkpt>
      <trkpt lat="48.23045" lon="7.29145">
        <ele>623</ele>
        <time>2021-08-14T12:33:39.000Z</time>
      </trkpt>
      <trkpt lat="48.23048" lon="7.29158">
        <ele>618.9</ele>
        <time>2021-08-14T12:33:48.000Z</time>
      </trkpt>
      <trkpt lat="48.23051" lon="7.29172">
        <ele>615</ele>
        <time>2021-08-14T12:33:59.000Z</time>
      </trkpt>
      <trkpt lat="48.23048" lon="7.29185">
        <ele>613.5</ele>
        <time>2021-08-14T12:34:08.000Z</time>
      </trkpt>
      <trkpt lat="48.23046" lon="7.29199">
        <ele>611.4</ele>
        <time>2021-08-14T12:34:17.000Z</time>
      </trkpt>
      <trkpt lat="48.23045" lon="7.29213">
        <ele>609</ele>
        <time>2021-08-14T12:34:24.000Z</time>
      </trkpt>
      <trkpt lat="48.23044" lon="7.29228">
        <ele>606.6</ele>
        <time>2021-08-14T12:34:31.000Z</time>
      </trkpt>
      <trkpt lat="48.23049" lon="7.2924">
        <ele>603.7</ele>
        <time>2021-08-14T12:34:40.000Z</time>
      </trkpt>
      <trkpt lat="48.23057" lon="7.29249">
        <ele>601.1</ele>
        <time>2021-08-14T12:34:48.000Z</time>
      </trkpt>
      <trkpt lat="48.23063" lon="7.2926">
        <ele>598.7</ele>
        <time>2021-08-14T12:34:54.000Z</time>
      </trkpt>
      <trkpt lat="48.23071" lon="7.29268">
        <ele>596.8</ele>
        <time>2021-08-14T12:35:00.000Z</time>
      </trkpt>
      <trkpt lat="48.23078" lon="7.29277">
        <ele>595</ele>
        <time>2021-08-14T12:35:07.000Z</time>
      </trkpt>
      <trkpt lat="48.23083" lon="7.29291">
        <ele>593.1</ele>
        <time>2021-08-14T12:35:17.000Z</time>
      </trkpt>
      <trkpt lat="48.23085" lon="7.29304">
        <ele>591.7</ele>
        <time>2021-08-14T12:35:29.000Z</time>
      </trkpt>
      <trkpt lat="48.23085" lon="7.29318">
        <ele>590.4</ele>
        <time>2021-08-14T12:35:40.000Z</time>
      </trkpt>
      <trkpt lat="48.23084" lon="7.29333">
        <ele>589</ele>
        <time>2021-08-14T12:35:52.000Z</time>
      </trkpt>
      <trkpt lat="48.23083" lon="7.29347">
        <ele>587.4</ele>
        <time>2021-08-14T12:36:02.000Z</time>
      </trkpt>
      <trkpt lat="48.2308" lon="7.2936">
        <ele>586</ele>
        <time>2021-08-14T12:36:14.000Z</time>
      </trkpt>
      <trkpt lat="48.23077" lon="7.29375">
        <ele>584.5</ele>
        <time>2021-08-14T12:36:24.000Z</time>
      </trkpt>
      <trkpt lat="48.23075" lon="7.29388">
        <ele>583.1</ele>
        <time>2021-08-14T12:36:34.000Z</time>
      </trkpt>
      <trkpt lat="48.23074" lon="7.29402">
        <ele>581.6</ele>
        <time>2021-08-14T12:36:46.000Z</time>
      </trkpt>
      <trkpt lat="48.23071" lon="7.29416">
        <ele>580.3</ele>
        <time>2021-08-14T12:36:56.000Z</time>
      </trkpt>
      <trkpt lat="48.23069" lon="7.2943">
        <ele>579.8</ele>
        <time>2021-08-14T12:37:04.000Z</time>
      </trkpt>
      <trkpt lat="48.23067" lon="7.29443">
        <ele>579.5</ele>
        <time>2021-08-14T12:37:15.000Z</time>
      </trkpt>
      <trkpt lat="48.23065" lon="7.29457">
        <ele>579</ele>
        <time>2021-08-14T12:37:23.000Z</time>
      </trkpt>
      <trkpt lat="48.23064" lon="7.2947">
        <ele>578.4</ele>
        <time>2021-08-14T12:37:33.000Z</time>
      </trkpt>
      <trkpt lat="48.23056" lon="7.29478">
        <ele>578.8</ele>
        <time>2021-08-14T12:37:42.000Z</time>
      </trkpt>
      <trkpt lat="48.23052" lon="7.29493">
        <ele>578.4</ele>
        <time>2021-08-14T12:37:54.000Z</time>
      </trkpt>
      <trkpt lat="48.23053" lon="7.29507">
        <ele>577.1</ele>
        <time>2021-08-14T12:38:01.000Z</time>
      </trkpt>
      <trkpt lat="48.23054" lon="7.29522">
        <ele>575.5</ele>
        <time>2021-08-14T12:38:08.000Z</time>
      </trkpt>
      <trkpt lat="48.23052" lon="7.29536">
        <ele>574.2</ele>
        <time>2021-08-14T12:38:16.000Z</time>
      </trkpt>
      <trkpt lat="48.23055" lon="7.29549">
        <ele>572.5</ele>
        <time>2021-08-14T12:38:23.000Z</time>
      </trkpt>
      <trkpt lat="48.23052" lon="7.29564">
        <ele>571.1</ele>
        <time>2021-08-14T12:38:32.000Z</time>
      </trkpt>
      <trkpt lat="48.23052" lon="7.29578">
        <ele>569.5</ele>
        <time>2021-08-14T12:38:43.000Z</time>
      </trkpt>
      <trkpt lat="48.2305" lon="7.29592">
        <ele>567.3</ele>
        <time>2021-08-14T12:38:53.000Z</time>
      </trkpt>
      <trkpt lat="48.23052" lon="7.29606">
        <ele>564.3</ele>
        <time>2021-08-14T12:39:02.000Z</time>
      </trkpt>
      <trkpt lat="48.23052" lon="7.2962">
        <ele>561.4</ele>
        <time>2021-08-14T12:39:09.000Z</time>
      </trkpt>
      <trkpt lat="48.23055" lon="7.29635">
        <ele>557.8</ele>
        <time>2021-08-14T12:39:17.000Z</time>
      </trkpt>
      <trkpt lat="48.23057" lon="7.29648">
        <ele>554.7</ele>
        <time>2021-08-14T12:39:26.000Z</time>
      </trkpt>
      <trkpt lat="48.2306" lon="7.29663">
        <ele>551</ele>
        <time>2021-08-14T12:39:36.000Z</time>
      </trkpt>
      <trkpt lat="48.2306" lon="7.29676">
        <ele>548.1</ele>
        <time>2021-08-14T12:39:43.000Z</time>
      </trkpt>
      <trkpt lat="48.2306" lon="7.2969">
        <ele>545.2</ele>
        <time>2021-08-14T12:39:52.000Z</time>
      </trkpt>
      <trkpt lat="48.23059" lon="7.29704">
        <ele>542.6</ele>
        <time>2021-08-14T12:40:01.000Z</time>
      </trkpt>
      <trkpt lat="48.2306" lon="7.29717">
        <ele>539.2</ele>
        <time>2021-08-14T12:40:12.000Z</time>
      </trkpt>
      <trkpt lat="48.23061" lon="7.29731">
        <ele>536.1</ele>
        <time>2021-08-14T12:40:21.000Z</time>
      </trkpt>
      <trkpt lat="48.23065" lon="7.29744">
        <ele>532.3</ele>
        <time>2021-08-14T12:40:29.000Z</time>
      </trkpt>
      <trkpt lat="48.23067" lon="7.29758">
        <ele>529.2</ele>
        <time>2021-08-14T12:40:37.000Z</time>
      </trkpt>
      <trkpt lat="48.23069" lon="7.29772">
        <ele>526.7</ele>
        <time>2021-08-14T12:40:44.000Z</time>
      </trkpt>
      <trkpt lat="48.23072" lon="7.29786">
        <ele>524.3</ele>
        <time>2021-08-14T12:40:50.000Z</time>
      </trkpt>
      <trkpt lat="48.23075" lon="7.29799">
        <ele>521.9</ele>
        <time>2021-08-14T12:40:55.000Z</time>
      </trkpt>
      <trkpt lat="48.23079" lon="7.29812">
        <ele>519</ele>
        <time>2021-08-14T12:41:02.000Z</time>
      </trkpt>
      <trkpt lat="48.2308" lon="7.29827">
        <ele>517</ele>
        <time>2021-08-14T12:41:12.000Z</time>
      </trkpt>
      <trkpt lat="48.2308" lon="7.29841">
        <ele>514.9</ele>
        <time>2021-08-14T12:41:19.000Z</time>
      </trkpt>
      <trkpt lat="48.2308" lon="7.29856">
        <ele>512.4</ele>
        <time>2021-08-14T12:41:28.000Z</time>
      </trkpt>
      <trkpt lat="48.23076" lon="7.29868">
        <ele>511.6</ele>
        <time>2021-08-14T12:41:37.000Z</time>
      </trkpt>
      <trkpt lat="48.23075" lon="7.29883">
        <ele>509.5</ele>
        <time>2021-08-14T12:41:44.000Z</time>
      </trkpt>
      <trkpt lat="48.23073" lon="7.29897">
        <ele>508.1</ele>
        <time>2021-08-14T12:41:53.000Z</time>
      </trkpt>
      <trkpt lat="48.23073" lon="7.29911">
        <ele>506</ele>
        <time>2021-08-14T12:42:05.000Z</time>
      </trkpt>
      <trkpt lat="48.23078" lon="7.29924">
        <ele>502.1</ele>
        <time>2021-08-14T12:42:16.000Z</time>
      </trkpt>
      <trkpt lat="48.23079" lon="7.29939">
        <ele>500.3</ele>
        <time>2021-08-14T12:42:23.000Z</time>
      </trkpt>
      <trkpt lat="48.2308" lon="7.29954">
        <ele>498.3</ele>
        <time>2021-08-14T12:42:31.000Z</time>
      </trkpt>
      <trkpt lat="48.23079" lon="7.29968">
        <ele>496.9</ele>
        <time>2021-08-14T12:42:43.000Z</time>
      </trkpt>
      <trkpt lat="48.23077" lon="7.29982">
        <ele>496</ele>
        <time>2021-08-14T12:42:52.000Z</time>
      </trkpt>
      <trkpt lat="48.23079" lon="7.29997">
        <ele>493.6</ele>
        <time>2021-08-14T12:43:01.000Z</time>
      </trkpt>
      <trkpt lat="48.23079" lon="7.30011">
        <ele>492.1</ele>
        <time>2021-08-14T12:43:12.000Z</time>
      </trkpt>
      <trkpt lat="48.23075" lon="7.30024">
        <ele>491.7</ele>
        <time>2021-08-14T12:43:19.000Z</time>
      </trkpt>
      <trkpt lat="48.23072" lon="7.30039">
        <ele>490.8</ele>
        <time>2021-08-14T12:43:27.000Z</time>
      </trkpt>
      <trkpt lat="48.2307" lon="7.30054">
        <ele>489.5</ele>
        <time>2021-08-14T12:43:36.000Z</time>
      </trkpt>
      <trkpt lat="48.23069" lon="7.30067">
        <ele>488.2</ele>
        <time>2021-08-14T12:43:43.000Z</time>
      </trkpt>
      <trkpt lat="48.23069" lon="7.30081">
        <ele>486.5</ele>
        <time>2021-08-14T12:43:52.000Z</time>
      </trkpt>
      <trkpt lat="48.23068" lon="7.30095">
        <ele>485.5</ele>
        <time>2021-08-14T12:44:23.000Z</time>
      </trkpt>
      <trkpt lat="48.23067" lon="7.30108">
        <ele>484.7</ele>
        <time>2021-08-14T12:44:30.000Z</time>
      </trkpt>
      <trkpt lat="48.23065" lon="7.30124">
        <ele>483.9</ele>
        <time>2021-08-14T12:44:39.000Z</time>
      </trkpt>
      <trkpt lat="48.23065" lon="7.30138">
        <ele>483</ele>
        <time>2021-08-14T12:44:45.000Z</time>
      </trkpt>
      <trkpt lat="48.23064" lon="7.30152">
        <ele>482.2</ele>
        <time>2021-08-14T12:44:55.000Z</time>
      </trkpt>
      <trkpt lat="48.2306" lon="7.30166">
        <ele>481.7</ele>
        <time>2021-08-14T12:45:03.000Z</time>
      </trkpt>
      <trkpt lat="48.23058" lon="7.30179">
        <ele>481.3</ele>
        <time>2021-08-14T12:45:11.000Z</time>
      </trkpt>
      <trkpt lat="48.23053" lon="7.30192">
        <ele>481.3</ele>
        <time>2021-08-14T12:45:18.000Z</time>
      </trkpt>
      <trkpt lat="48.23049" lon="7.30205">
        <ele>481</ele>
        <time>2021-08-14T12:45:26.000Z</time>
      </trkpt>
      <trkpt lat="48.23046" lon="7.30219">
        <ele>480.6</ele>
        <time>2021-08-14T12:45:34.000Z</time>
      </trkpt>
      <trkpt lat="48.2304" lon="7.3023">
        <ele>480.9</ele>
        <time>2021-08-14T12:45:43.000Z</time>
      </trkpt>
      <trkpt lat="48.23034" lon="7.30241">
        <ele>481.2</ele>
        <time>2021-08-14T12:45:51.000Z</time>
      </trkpt>
      <trkpt lat="48.23028" lon="7.30253">
        <ele>481.4</ele>
        <time>2021-08-14T12:45:58.000Z</time>
      </trkpt>
      <trkpt lat="48.23023" lon="7.30264">
        <ele>481.3</ele>
        <time>2021-08-14T12:46:05.000Z</time>
      </trkpt>
      <trkpt lat="48.23019" lon="7.30279">
        <ele>480.9</ele>
        <time>2021-08-14T12:46:13.000Z</time>
      </trkpt>
      <trkpt lat="48.23015" lon="7.30292">
        <ele>480.5</ele>
        <time>2021-08-14T12:46:20.000Z</time>
      </trkpt>
      <trkpt lat="48.23006" lon="7.30297">
        <ele>481.6</ele>
        <time>2021-08-14T12:46:27.000Z</time>
      </trkpt>
      <trkpt lat="48.22997" lon="7.30301">
        <ele>483</ele>
        <time>2021-08-14T12:46:33.000Z</time>
      </trkpt>
      <trkpt lat="48.2299" lon="7.30311">
        <ele>483.4</ele>
        <time>2021-08-14T12:46:42.000Z</time>
      </trkpt>
      <trkpt lat="48.22987" lon="7.30325">
        <ele>482.8</ele>
        <time>2021-08-14T12:46:50.000Z</time>
      </trkpt>
      <trkpt lat="48.22982" lon="7.30337">
        <ele>482.2</ele>
        <time>2021-08-14T12:46:58.000Z</time>
      </trkpt>
      <trkpt lat="48.22977" lon="7.30349">
        <ele>481.1</ele>
        <time>2021-08-14T12:47:05.000Z</time>
      </trkpt>
      <trkpt lat="48.22972" lon="7.30361">
        <ele>479.8</ele>
        <time>2021-08-14T12:47:11.000Z</time>
      </trkpt>
      <trkpt lat="48.22966" lon="7.30371">
        <ele>478.9</ele>
        <time>2021-08-14T12:47:17.000Z</time>
      </trkpt>
      <trkpt lat="48.22958" lon="7.3038">
        <ele>478.4</ele>
        <time>2021-08-14T12:47:26.000Z</time>
      </trkpt>
      <trkpt lat="48.22951" lon="7.30391">
        <ele>477.5</ele>
        <time>2021-08-14T12:47:35.000Z</time>
      </trkpt>
      <trkpt lat="48.22943" lon="7.30401">
        <ele>476.7</ele>
        <time>2021-08-14T12:47:43.000Z</time>
      </trkpt>
      <trkpt lat="48.22943" lon="7.30415">
        <ele>474.2</ele>
        <time>2021-08-14T12:47:48.000Z</time>
      </trkpt>
      <trkpt lat="48.22934" lon="7.30425">
        <ele>474.5</ele>
        <time>2021-08-14T12:47:56.000Z</time>
      </trkpt>
      <trkpt lat="48.22928" lon="7.30434">
        <ele>474.8</ele>
        <time>2021-08-14T12:48:04.000Z</time>
      </trkpt>
      <trkpt lat="48.22921" lon="7.30446">
        <ele>475.1</ele>
        <time>2021-08-14T12:48:11.000Z</time>
      </trkpt>
      <trkpt lat="48.22915" lon="7.30456">
        <ele>475.3</ele>
        <time>2021-08-14T12:48:19.000Z</time>
      </trkpt>
      <trkpt lat="48.22907" lon="7.30465">
        <ele>475.4</ele>
        <time>2021-08-14T12:48:26.000Z</time>
      </trkpt>
      <trkpt lat="48.22903" lon="7.30477">
        <ele>475.1</ele>
        <time>2021-08-14T12:48:32.000Z</time>
      </trkpt>
      <trkpt lat="48.22898" lon="7.30489">
        <ele>474.7</ele>
        <time>2021-08-14T12:48:38.000Z</time>
      </trkpt>
      <trkpt lat="48.22892" lon="7.30499">
        <ele>474.5</ele>
        <time>2021-08-14T12:48:46.000Z</time>
      </trkpt>
      <trkpt lat="48.22882" lon="7.30506">
        <ele>474.7</ele>
        <time>2021-08-14T12:48:53.000Z</time>
      </trkpt>
      <trkpt lat="48.22874" lon="7.30513">
        <ele>474.8</ele>
        <time>2021-08-14T12:49:00.000Z</time>
      </trkpt>
      <trkpt lat="48.22866" lon="7.3052">
        <ele>474.8</ele>
        <time>2021-08-14T12:49:08.000Z</time>
      </trkpt>
      <trkpt lat="48.22857" lon="7.30527">
        <ele>474.8</ele>
        <time>2021-08-14T12:49:16.000Z</time>
      </trkpt>
      <trkpt lat="48.22849" lon="7.30537">
        <ele>474.6</ele>
        <time>2021-08-14T12:49:25.000Z</time>
      </trkpt>
      <trkpt lat="48.22841" lon="7.30545">
        <ele>474.4</ele>
        <time>2021-08-14T12:49:35.000Z</time>
      </trkpt>
      <trkpt lat="48.22832" lon="7.3055">
        <ele>474.3</ele>
        <time>2021-08-14T12:49:41.000Z</time>
      </trkpt>
      <trkpt lat="48.22822" lon="7.3055">
        <ele>473.1</ele>
        <time>2021-08-14T12:49:52.000Z</time>
      </trkpt>
      <trkpt lat="48.22813" lon="7.30548">
        <ele>472.1</ele>
        <time>2021-08-14T12:50:00.000Z</time>
      </trkpt>
      <trkpt lat="48.22805" lon="7.30539">
        <ele>471.8</ele>
        <time>2021-08-14T12:50:11.000Z</time>
      </trkpt>
      <trkpt lat="48.22798" lon="7.30528">
        <ele>471.4</ele>
        <time>2021-08-14T12:50:18.000Z</time>
      </trkpt>
      <trkpt lat="48.22788" lon="7.30525">
        <ele>470.4</ele>
        <time>2021-08-14T12:50:23.000Z</time>
      </trkpt>
      <trkpt lat="48.22783" lon="7.30514">
        <ele>470.2</ele>
        <time>2021-08-14T12:50:28.000Z</time>
      </trkpt>
      <trkpt lat="48.22779" lon="7.30501">
        <ele>470.1</ele>
        <time>2021-08-14T12:50:38.000Z</time>
      </trkpt>
      <trkpt lat="48.22774" lon="7.30489">
        <ele>470.2</ele>
        <time>2021-08-14T12:50:46.000Z</time>
      </trkpt>
      <trkpt lat="48.22769" lon="7.30475">
        <ele>470.4</ele>
        <time>2021-08-14T12:50:54.000Z</time>
      </trkpt>
      <trkpt lat="48.22764" lon="7.30464">
        <ele>470.3</ele>
        <time>2021-08-14T12:51:01.000Z</time>
      </trkpt>
      <trkpt lat="48.22757" lon="7.30453">
        <ele>469.9</ele>
        <time>2021-08-14T12:51:10.000Z</time>
      </trkpt>
      <trkpt lat="48.22751" lon="7.30442">
        <ele>469.6</ele>
        <time>2021-08-14T12:52:20.000Z</time>
      </trkpt>
      <trkpt lat="48.22742" lon="7.30436">
        <ele>469.2</ele>
        <time>2021-08-14T12:52:51.000Z</time>
      </trkpt>
      <trkpt lat="48.22732" lon="7.30434">
        <ele>468.6</ele>
        <time>2021-08-14T12:52:58.000Z</time>
      </trkpt>
      <trkpt lat="48.22722" lon="7.30432">
        <ele>467.9</ele>
        <time>2021-08-14T12:53:06.000Z</time>
      </trkpt>
      <trkpt lat="48.22712" lon="7.30434">
        <ele>467</ele>
        <time>2021-08-14T12:53:13.000Z</time>
      </trkpt>
      <trkpt lat="48.22702" lon="7.30437">
        <ele>466.1</ele>
        <time>2021-08-14T12:53:20.000Z</time>
      </trkpt>
      <trkpt lat="48.22693" lon="7.30438">
        <ele>465.3</ele>
        <time>2021-08-14T12:53:29.000Z</time>
      </trkpt>
      <trkpt lat="48.22683" lon="7.30437">
        <ele>464.6</ele>
        <time>2021-08-14T12:53:38.000Z</time>
      </trkpt>
      <trkpt lat="48.22674" lon="7.30438">
        <ele>463.8</ele>
        <time>2021-08-14T12:53:46.000Z</time>
      </trkpt>
      <trkpt lat="48.22664" lon="7.3044">
        <ele>463</ele>
        <time>2021-08-14T12:53:54.000Z</time>
      </trkpt>
      <trkpt lat="48.22654" lon="7.30445">
        <ele>462.5</ele>
        <time>2021-08-14T12:54:01.000Z</time>
      </trkpt>
      <trkpt lat="48.22644" lon="7.30449">
        <ele>462.1</ele>
        <time>2021-08-14T12:54:08.000Z</time>
      </trkpt>
      <trkpt lat="48.22634" lon="7.30452">
        <ele>461.7</ele>
        <time>2021-08-14T12:54:16.000Z</time>
      </trkpt>
      <trkpt lat="48.22625" lon="7.30458">
        <ele>461</ele>
        <time>2021-08-14T12:54:25.000Z</time>
      </trkpt>
      <trkpt lat="48.22622" lon="7.30472">
        <ele>459.7</ele>
        <time>2021-08-14T12:54:33.000Z</time>
      </trkpt>
      <trkpt lat="48.22622" lon="7.30479">
        <ele>459</ele>
        <time>2021-08-14T12:54:40.000Z</time>
      </trkpt>
    </trkseg>
  </trk>
</gpx>